Flight Track Log - Related Links

Times and Time Zones

All times are in EDT time to prevent confusion due to time zone crossing. See the N717AN flight status page for this flight to view local times or setup timezone preferences in your user account.

Time Position Orientation Groundspeed Altitude Reporting Facility
EDT Latitude Longitude Course Direction KTS MPH feet Rate Location/Type
Fri 06:39:19 PM 32.8600 -97.0290 173° South 194 223 2,100  Level FlightAware ADS-B
Fri 06:39:39 PM 32.8410 -97.0210 161° South 212 244 2,400 900 Climbing FlightAware ADS-B
Fri 06:39:59 PM 32.8210 -97.0120 159° South 233 268 2,700 1,500 Climbing FlightAware ADS-B
Fri 06:40:19 PM 32.8010 -97.0030 159° South 240 276 3,400 1,941 Climbing FlightAware ADS-B
Fri 06:40:33 PM 32.7880 -96.9950 153° Southeast 246 283 3,800 1,895 Climbing FlightAware ADS-B
Fri 06:40:38 PM 32.7820 -96.9880 136° Southeast 250 288 4,000 1,875 Climbing FlightAware ADS-B
Fri 06:40:49 PM 32.7760 -96.9770 123° Southeast 258 297 4,300 1,500 Climbing FlightAware ADS-B
Fri 06:40:58 PM 32.7730 -96.9670 110° East 263 303 4,500 2,069 Climbing FlightAware ADS-B
Fri 06:41:18 PM 32.7660 -96.9370 106° East 269 310 5,300 1,833 Climbing FlightAware ADS-B
Fri 06:41:34 PM 32.7650 -96.9170 93° East 279 321 5,600 1,571 Climbing FlightAware ADS-B
Fri 06:42:00 PM 32.7670 -96.8700 87° East 292 336 6,400 2,170 Climbing FlightAware ADS-B
Fri 06:42:21 PM 32.7710 -96.8340 82° East 295 339 7,300 2,069 Climbing FlightAware ADS-B
Fri 06:42:29 PM 32.7750 -96.8220 68° East 302 348 7,400 1,125 Climbing FlightAware ADS-B
Fri 06:42:37 PM 32.7800 -96.8110 62° Northeast 309 356 7,600 1,920 Climbing FlightAware ADS-B
Fri 06:42:54 PM 32.7950 -96.7870 53° Northeast 311 358 8,200 2,069 Climbing FlightAware ADS-B
Fri 06:43:06 PM 32.8060 -96.7710 51° Northeast 314 361 8,600 1,895 Climbing FlightAware ADS-B
Fri 06:43:32 PM 32.8300 -96.7350 52° Northeast 318 366 9,400 1,737 Climbing FlightAware ADS-B
Fri 06:43:44 PM 32.8410 -96.7180 52° Northeast 321 369 9,700 1,404 Climbing FlightAware ADS-B
Fri 06:44:19 PM 32.8720 -96.6680 54° Northeast 339 390 10,500 1,114 Climbing FlightAware ADS-B
Fri 06:44:54 PM 32.9070 -96.6120 53° Northeast 369 425 11,000 1,000 Climbing FlightAware ADS-B
Fri 06:45:31 PM 32.9460 -96.5500 53° Northeast 398 458 11,700 1,371 Climbing FlightAware ADS-B
Fri 06:46:04 PM 32.9840 -96.4900 53° Northeast 416 479 12,600 1,971 Climbing FlightAware ADS-B
Fri 06:46:41 PM 33.0270 -96.4220 53° Northeast 423 487 14,000 2,301 Climbing FlightAware ADS-B
Fri 06:47:17 PM 33.0690 -96.3530 54° Northeast 430 495 15,400 2,118 Climbing FlightAware ADS-B
Fri 06:47:49 PM 33.0970 -96.2840 64° Northeast 439 505 16,400 1,765 Climbing FlightAware ADS-B
Fri 06:48:25 PM 33.1220 -96.2010 70° East 449 517 17,400 1,808 Climbing FlightAware ADS-B
Fri 06:49:02 PM 33.1470 -96.1140 71° East 456 525 18,600 1,765 Climbing FlightAware ADS-B
Fri 06:49:33 PM 33.1690 -96.0400 70° East 463 533 19,400 1,545 Climbing FlightAware ADS-B
Fri 06:50:08 PM 33.1950 -95.9530 70° East 470 541 20,300 1,562 Climbing FlightAware ADS-B
Fri 06:50:46 PM 33.2220 -95.8600 71° East 479 551 21,300 1,378 Climbing FlightAware ADS-B
Fri 06:51:22 PM 33.2490 -95.7690 70° East 490 564 22,000 1,147 Climbing FlightAware ADS-B
Fri 06:51:54 PM 33.2720 -95.6880 71° East 500 575 22,600 1,235 Climbing FlightAware ADS-B
Fri 06:52:30 PM 33.3000 -95.5920 71° East 509 586 23,400 1,397 Climbing FlightAware ADS-B
Fri 06:53:07 PM 33.3290 -95.4930 71° East 515 593 24,300 1,324 Climbing FlightAware ADS-B
Fri 06:53:38 PM 33.3540 -95.4070 71° East 522 601 24,900 1,247 Climbing FlightAware ADS-B
Fri 06:54:24 PM 33.3890 -95.2830 71° East 529 609 25,900 1,231 Climbing FlightAware ADS-B
Fri 06:54:56 PM 33.4140 -95.1960 71° East 534 615 26,500 1,114 Climbing FlightAware ADS-B
Fri 06:55:34 PM 33.4460 -95.0860 71° East 542 624 27,200 1,099 Climbing FlightAware ADS-B
Fri 06:56:07 PM 33.4720 -94.9930 71° East 549 632 27,800 711 Climbing FlightAware ADS-B
Fri 06:56:50 PM 33.5050 -94.8790 71° East 551 634 28,100 960 Climbing FlightAware ADS-B
Fri 06:57:22 PM 33.5310 -94.7870 71° East 564 649 29,000 971 Climbing FlightAware ADS-B
Fri 06:57:58 PM 33.5590 -94.6880 71° East 563 648 29,200 1,000 Climbing FlightAware ADS-B
Fri 06:58:46 PM 33.6040 -94.5260 72° East 575 662 30,400 1,350 Climbing FlightAware ADS-B
Fri 06:59:18 PM 33.6310 -94.4280 72° East 576 663 31,000 419 Climbing FlightAware ADS-B
Fri 07:00:12 PM 33.6730 -94.2800 71° East 576 663 31,000  Level FlightAware ADS-B
Fri 07:00:48 PM 33.6990 -94.1870 71° East 576 663 31,000  Level FlightAware ADS-B
Fri 07:01:13 PM 33.7520 -94.0910 56° Northeast 572 658 31,000  Level FlightAware ADS-B
Fri 07:01:46 PM 33.7870 -94.0200 59° Northeast 572 658 31,000  Level FlightAware ADS-B
Fri 07:02:24 PM 33.8470 -93.8990 59° Northeast 572 658 31,000  Level FlightAware ADS-B
Fri 07:02:59 PM 33.8960 -93.8000 59° Northeast 571 657 31,000  Level FlightAware ADS-B
Fri 07:03:32 PM 33.9360 -93.7200 59° Northeast 571 657 31,000  Level FlightAware ADS-B
Fri 07:04:08 PM 33.9770 -93.6370 59° Northeast 571 657 31,000  Level FlightAware ADS-B
Fri 07:04:44 PM 34.0190 -93.5530 59° Northeast 571 657 31,000  Level FlightAware ADS-B
Fri 07:05:20 PM 34.0610 -93.4700 59° Northeast 571 657 31,000  Level FlightAware ADS-B
Fri 07:05:56 PM 34.1020 -93.3860 59° Northeast 571 657 31,000  Level FlightAware ADS-B
Fri 07:06:27 PM 34.1350 -93.3130 61° Northeast 567 652 31,000  Level FlightAware ADS-B
Fri 07:07:06 PM 34.2250 -93.1270 60° Northeast 566 651 31,000  Level FlightAware ADS-B
Fri 07:07:47 PM 34.2770 -93.0200 60° Northeast 566 651 31,000  Level FlightAware ADS-B
Fri 07:08:23 PM 34.3270 -92.9160 60° Northeast 567 652 31,000  Level FlightAware ADS-B
Fri 07:08:55 PM 34.3650 -92.8370 60° Northeast 567 652 31,000  Level FlightAware ADS-B
Fri 07:09:31 PM 34.4160 -92.7310 60° Northeast 564 649 31,000  Level FlightAware ADS-B
Fri 07:10:08 PM 34.4640 -92.6300 60° Northeast 562 647 31,000  Level FlightAware ADS-B
Fri 07:10:44 PM 34.5120 -92.5300 60° Northeast 560 644 31,000  Level FlightAware ADS-B
Fri 07:11:13 PM 34.5480 -92.4540 60° Northeast 560 644 31,000  Level FlightAware ADS-B
Fri 07:12:00 PM 34.6050 -92.3330 60° Northeast 561 646 31,000  Level FlightAware ADS-B
Fri 07:12:35 PM 34.6550 -92.2290 60° Northeast 558 642 31,000  Level FlightAware ADS-B
Fri 07:13:08 PM 34.7030 -92.1500 54° Northeast 555 639 31,000  Level FlightAware ADS-B
Fri 07:13:40 PM 34.7620 -92.0720 47° Northeast 552 635 31,000  Level FlightAware ADS-B
Fri 07:14:19 PM 34.8290 -91.9870 46° Northeast 549 632 31,000  Level FlightAware ADS-B
Fri 07:14:56 PM 34.8960 -91.9020 46° Northeast 549 632 31,000  Level FlightAware ADS-B
Fri 07:15:28 PM 34.9510 -91.8310 47° Northeast 549 632 31,000  Level FlightAware ADS-B
Fri 07:16:05 PM 35.0160 -91.7480 46° Northeast 548 631 31,000  Level FlightAware ADS-B
Fri 07:16:40 PM 35.0770 -91.6690 47° Northeast 547 629 31,000  Level FlightAware ADS-B
Fri 07:17:12 PM 35.1320 -91.5970 47° Northeast 548 631 31,000  Level FlightAware ADS-B
Fri 07:17:45 PM 35.1890 -91.5230 47° Northeast 546 628 31,000  Level FlightAware ADS-B
Fri 07:18:21 PM 35.2500 -91.4440 47° Northeast 547 629 31,000  Level FlightAware ADS-B
Fri 07:18:57 PM 35.3120 -91.3630 47° Northeast 549 632 31,000  Level FlightAware ADS-B
Fri 07:19:46 PM 35.3980 -91.2510 47° Northeast 550 633 31,000  Level FlightAware ADS-B
Fri 07:20:23 PM 35.4570 -91.1750 46° Northeast 550 633 31,000  Level FlightAware ADS-B
Fri 07:20:55 PM 35.5080 -91.1080 47° Northeast 551 634 31,000  Level FlightAware ADS-B
Fri 07:21:35 PM 35.5880 -91.0020 47° Northeast 550 633 31,000  Level FlightAware ADS-B
Fri 07:22:05 PM 35.6400 -90.9330 47° Northeast 549 632 31,000  Level FlightAware ADS-B
Fri 07:22:38 PM 35.6940 -90.8610 47° Northeast 549 632 31,000  Level FlightAware ADS-B
Fri 07:23:16 PM 35.7500 -90.7870 47° Northeast 549 632 31,000  Level FlightAware ADS-B
Fri 07:24:08 PM 35.8460 -90.6600 47° Northeast 549 632 31,000  Level FlightAware ADS-B
Fri 07:25:03 PM 35.9480 -90.5240 47° Northeast 550 633 31,000  Level FlightAware ADS-B
Fri 07:25:44 PM 36.0080 -90.4430 48° Northeast 550 633 31,000  Level FlightAware ADS-B
Fri 07:26:21 PM 36.0630 -90.3710 47° Northeast 550 633 31,000  Level FlightAware ADS-B
Fri 07:26:51 PM 36.1320 -90.2760 48° Northeast 545 627 31,000  Level FlightAware ADS-B
Fri 07:27:30 PM 36.1890 -90.2010 47° Northeast 545 627 31,000  Level FlightAware ADS-B
Fri 07:28:18 PM 36.2690 -90.0920 48° Northeast 544 626 31,000  Level FlightAware ADS-B
Fri 07:28:54 PM 36.3210 -90.0220 47° Northeast 544 626 31,000  Level FlightAware ADS-B
Fri 07:29:24 PM 36.3890 -89.9290 48° Northeast 540 621 31,000  Level FlightAware ADS-B
Fri 07:30:05 PM 36.4600 -89.8320 48° Northeast 540 621 31,000  Level FlightAware ADS-B
Fri 07:30:37 PM 36.5150 -89.7570 48° Northeast 540 621 31,000  Level FlightAware ADS-B
Fri 07:31:10 PM 36.5680 -89.6840 48° Northeast 537 618 31,000  Level FlightAware ADS-B
Fri 07:31:48 PM 36.6320 -89.5960 48° Northeast 535 616 31,000  Level FlightAware ADS-B
Fri 07:32:25 PM 36.6910 -89.5160 47° Northeast 533 613 31,000  Level FlightAware ADS-B
Fri 07:32:57 PM 36.7390 -89.4480 49° Northeast 529 609 31,000  Level FlightAware ADS-B
Fri 07:33:33 PM 36.8050 -89.3570 48° Northeast 527 606 31,000  Level FlightAware ADS-B
Fri 07:34:09 PM 36.8620 -89.2780 48° Northeast 526 605 31,000  Level FlightAware ADS-B
Fri 07:34:43 PM 36.9200 -89.1980 48° Northeast 524 603 31,000  Level FlightAware ADS-B
Fri 07:35:17 PM 36.9720 -89.1260 48° Northeast 521 600 31,000  Level FlightAware ADS-B
Fri 07:35:54 PM 37.0330 -89.0400 48° Northeast 522 601 31,000  Level FlightAware ADS-B
Fri 07:36:28 PM 37.0890 -88.9610 48° Northeast 523 602 31,000  Level FlightAware ADS-B
Fri 07:37:04 PM 37.1460 -88.8810 48° Northeast 523 602 31,000  Level FlightAware ADS-B
Fri 07:37:38 PM 37.2020 -88.8030 48° Northeast 523 602 31,000  Level FlightAware ADS-B
Fri 07:38:15 PM 37.2590 -88.7210 49° Northeast 524 603 31,000  Level FlightAware ADS-B
Fri 07:38:49 PM 37.3160 -88.6420 48° Northeast 525 604 31,000  Level FlightAware ADS-B
Fri 07:39:19 PM 37.3640 -88.5740 48° Northeast 524 603 31,000  Level FlightAware ADS-B
Fri 07:39:58 PM 37.4250 -88.4860 49° Northeast 523 602 31,000  Level FlightAware ADS-B
Fri 07:40:35 PM 37.4860 -88.4000 48° Northeast 522 601 31,000  Level FlightAware ADS-B
Fri 07:41:11 PM 37.5430 -88.3180 49° Northeast 522 601 31,000  Level FlightAware ADS-B
Fri 07:41:43 PM 37.5940 -88.2450 49° Northeast 520 598 31,000  Level FlightAware ADS-B
Fri 07:42:19 PM 37.6500 -88.1640 49° Northeast 519 597 31,000  Level FlightAware ADS-B
Fri 07:42:51 PM 37.7020 -88.0900 48° Northeast 518 596 31,000  Level FlightAware ADS-B
Fri 07:43:29 PM 37.7620 -88.0040 49° Northeast 518 596 31,000  Level FlightAware ADS-B
Fri 07:44:05 PM 37.8180 -87.9230 49° Northeast 517 595 31,000  Level FlightAware ADS-B
Fri 07:44:39 PM 37.8710 -87.8460 49° Northeast 516 594 31,000  Level FlightAware ADS-B
Fri 07:45:15 PM 37.9250 -87.7590 52° Northeast 517 595 31,000  Level FlightAware ADS-B
Fri 07:45:51 PM 37.9660 -87.6630 62° Northeast 519 597 31,000  Level FlightAware ADS-B
Fri 07:46:21 PM 37.9960 -87.5800 65° Northeast 520 598 31,000  Level FlightAware ADS-B
Fri 07:46:59 PM 38.0350 -87.4750 65° Northeast 520 598 31,000  Level FlightAware ADS-B
Fri 07:47:33 PM 38.0690 -87.3830 65° Northeast 518 596 31,000  Level FlightAware ADS-B
Fri 07:48:09 PM 38.1050 -87.2850 65° Northeast 517 595 31,000  Level FlightAware ADS-B
Fri 07:48:45 PM 38.1420 -87.1840 65° Northeast 517 595 31,000  Level FlightAware ADS-B
Fri 07:49:17 PM 38.1740 -87.0980 65° Northeast 519 597 31,000  Level FlightAware ADS-B
Fri 07:49:51 PM 38.2080 -87.0050 65° Northeast 517 595 31,000  Level FlightAware ADS-B
Fri 07:50:27 PM 38.2450 -86.9050 65° Northeast 516 594 31,000  Level FlightAware ADS-B
Fri 07:51:05 PM 38.2820 -86.8010 66° East 514 592 31,000  Level FlightAware ADS-B
Fri 07:51:45 PM 38.3220 -86.6900 65° Northeast 514 592 31,000  Level FlightAware ADS-B
Fri 07:52:21 PM 38.3570 -86.5950 65° Northeast 514 592 31,000  Level FlightAware ADS-B
Fri 07:52:57 PM 38.3930 -86.4940 66° East 514 592 31,000  Level FlightAware ADS-B
Fri 07:53:33 PM 38.4300 -86.3920 65° Northeast 512 589 31,000  Level FlightAware ADS-B
Fri 07:54:06 PM 38.4640 -86.3060 63° Northeast 511 588 31,000  Level FlightAware ADS-B
Fri 07:54:41 PM 38.5040 -86.2130 61° Northeast 510 587 31,000  Level FlightAware ADS-B
Fri 07:55:19 PM 38.5470 -86.1120 61° Northeast 510 587 31,000  Level FlightAware ADS-B
Fri 07:55:51 PM 38.5830 -86.0260 62° Northeast 507 583 31,000  Level FlightAware ADS-B
Fri 07:56:27 PM 38.6220 -85.9310 62° Northeast 506 582 31,000  Level FlightAware ADS-B
Fri 07:57:03 PM 38.6600 -85.8360 63° Northeast 504 580 31,000  Level FlightAware ADS-B
Fri 07:57:39 PM 38.6990 -85.7410 62° Northeast 502 578 31,000  Level FlightAware ADS-B
Fri 07:58:11 PM 38.7330 -85.6580 62° Northeast 502 578 31,000  Level FlightAware ADS-B
Fri 07:58:45 PM 38.7690 -85.5710 62° Northeast 502 578 31,000  Level FlightAware ADS-B
Fri 07:59:23 PM 38.8110 -85.4660 63° Northeast 502 578 31,000  Level FlightAware ADS-B
Fri 07:59:53 PM 38.8430 -85.3880 62° Northeast 501 577 31,000  Level FlightAware ADS-B
Fri 08:00:28 PM 38.8790 -85.2980 63° Northeast 501 577 31,000  Level FlightAware ADS-B
Fri 08:01:22 PM 38.9340 -85.1640 62° Northeast 501 577 31,000  Level FlightAware ADS-B
Fri 08:01:56 PM 38.9350 -85.1590 76° East 501 577 31,000  Level FlightAware ADS-B
Fri 08:02:32 PM 38.9690 -85.0790 61° Northeast 501 577 31,000  Level FlightAware ADS-B
Fri 08:03:08 PM 39.0020 -84.9980 62° Northeast 501 577 31,000  Level FlightAware ADS-B
Fri 08:03:39 PM 39.0810 -84.7910 64° Northeast 499 574 31,000  Level FlightAware ADS-B
Fri 08:04:17 PM 39.1210 -84.6920 62° Northeast 499 574 31,000  Level FlightAware ADS-B
Fri 08:04:50 PM 39.1560 -84.6050 63° Northeast 498 573 31,000  Level FlightAware ADS-B
Fri 08:05:21 PM 39.1880 -84.5240 63° Northeast 498 573 31,000  Level FlightAware ADS-B
Fri 08:06:00 PM 39.2260 -84.4280 63° Northeast 496 571 31,000  Level FlightAware ADS-B
Fri 08:06:35 PM 39.2660 -84.3270 63° Northeast 496 571 31,000  Level FlightAware ADS-B
Fri 08:07:13 PM 39.3050 -84.2260 63° Northeast 495 570 31,000  Level FlightAware ADS-B
Fri 08:07:53 PM 39.3460 -84.1220 63° Northeast 493 567 31,000  Level FlightAware ADS-B
Fri 08:08:30 PM 39.3830 -84.0270 63° Northeast 492 566 31,000  Level FlightAware ADS-B
Fri 08:09:02 PM 39.4150 -83.9440 63° Northeast 490 564 31,000  Level FlightAware ADS-B
Fri 08:09:37 PM 39.4530 -83.8480 63° Northeast 488 562 31,000  Level FlightAware ADS-B
Fri 08:10:13 PM 39.4880 -83.7560 64° Northeast 489 563 31,000  Level FlightAware ADS-B
Fri 08:10:49 PM 39.5250 -83.6610 63° Northeast 489 563 31,000  Level FlightAware ADS-B
Fri 08:11:22 PM 39.5570 -83.5760 64° Northeast 489 563 31,000  Level FlightAware ADS-B
Fri 08:11:56 PM 39.5910 -83.4890 63° Northeast 488 562 31,000  Level FlightAware ADS-B
Fri 08:12:35 PM 39.6290 -83.3890 64° Northeast 489 563 31,000  Level FlightAware ADS-B
Fri 08:13:05 PM 39.6600 -83.3080 64° Northeast 489 563 31,000  Level FlightAware ADS-B
Fri 08:13:39 PM 39.6950 -83.2140 64° Northeast 490 564 31,000  Level FlightAware ADS-B
Fri 08:14:19 PM 39.7360 -83.1080 63° Northeast 491 565 31,000  Level FlightAware ADS-B
Fri 08:14:51 PM 39.7670 -83.0260 64° Northeast 489 563 31,000  Level FlightAware ADS-B
Fri 08:15:29 PM 39.8050 -82.9240 64° Northeast 487 560 31,000  Level FlightAware ADS-B
Fri 08:16:01 PM 39.8350 -82.8430 64° Northeast 487 560 31,000  Level FlightAware ADS-B
Fri 08:16:37 PM 39.8720 -82.7460 64° Northeast 488 562 31,000  Level FlightAware ADS-B
Fri 08:17:13 PM 39.9080 -82.6490 64° Northeast 489 563 31,000  Level FlightAware ADS-B
Fri 08:17:50 PM 39.9430 -82.5530 65° Northeast 488 562 31,000  Level FlightAware ADS-B
Fri 08:18:21 PM 39.9730 -82.4740 64° Northeast 488 562 31,000  Level FlightAware ADS-B
Fri 08:18:58 PM 40.0100 -82.3730 64° Northeast 487 560 31,000  Level FlightAware ADS-B
Fri 08:19:35 PM 40.0450 -82.2770 65° Northeast 488 562 31,000  Level FlightAware ADS-B
Fri 08:20:07 PM 40.0770 -82.1910 64° Northeast 489 563 31,000  Level FlightAware ADS-B
Fri 08:20:43 PM 40.1130 -82.0930 64° Northeast 488 562 31,000  Level FlightAware ADS-B
Fri 08:21:19 PM 40.1470 -81.9980 65° Northeast 489 563 31,000  Level FlightAware ADS-B
Fri 08:21:53 PM 40.1810 -81.9060 64° Northeast 490 564 31,000  Level FlightAware ADS-B
Fri 08:22:27 PM 40.2130 -81.8160 65° Northeast 489 563 31,000  Level FlightAware ADS-B
Fri 08:23:03 PM 40.2480 -81.7210 64° Northeast 491 565 31,000  Level FlightAware ADS-B
Fri 08:23:39 PM 40.2830 -81.6220 65° Northeast 491 565 31,000  Level FlightAware ADS-B
Fri 08:24:11 PM 40.3140 -81.5360 65° Northeast 491 565 31,000  Level FlightAware ADS-B
Fri 08:24:48 PM 40.3490 -81.4390 65° Northeast 491 565 31,000  Level FlightAware ADS-B
Fri 08:25:21 PM 40.3810 -81.3490 65° Northeast 490 564 31,000  Level FlightAware ADS-B
Fri 08:25:59 PM 40.4170 -81.2450 66° East 491 565 31,000  Level FlightAware ADS-B
Fri 08:26:31 PM 40.4470 -81.1600 65° Northeast 492 566 31,000  Level FlightAware ADS-B
Fri 08:27:07 PM 40.4820 -81.0620 65° Northeast 494 568 31,000  Level FlightAware ADS-B
Fri 08:27:42 PM 40.5160 -80.9670 65° Northeast 497 572 31,000  Level FlightAware ADS-B
Fri 08:28:16 PM 40.5460 -80.8800 66° East 499 574 31,000  Level FlightAware ADS-B
Fri 08:28:51 PM 40.5820 -80.7780 65° Northeast 501 577 31,000  Level FlightAware ADS-B
Fri 08:29:30 PM 40.6200 -80.6690 65° Northeast 504 580 31,000  Level FlightAware ADS-B
Fri 08:30:02 PM 40.6500 -80.5810 66° East 506 582 31,000  Level FlightAware ADS-B
Fri 08:30:36 PM 40.6850 -80.4810 65° Northeast 507 583 31,000  Level FlightAware ADS-B
Fri 08:31:12 PM 40.7190 -80.3810 66° East 507 583 31,000  Level FlightAware ADS-B
Fri 08:31:47 PM 40.7520 -80.2860 65° Northeast 508 585 31,000  Level FlightAware ADS-B
Fri 08:32:22 PM 40.7870 -80.1830 66° East 509 586 31,000  Level FlightAware ADS-B
Fri 08:32:56 PM 40.8200 -80.0870 66° East 511 588 31,000  Level FlightAware ADS-B
Fri 08:33:32 PM 40.8530 -79.9880 66° East 513 590 31,000  Level FlightAware ADS-B
Fri 08:34:08 PM 40.8890 -79.8840 65° Northeast 514 592 31,000  Level FlightAware ADS-B
Fri 08:34:40 PM 40.9200 -79.7910 66° East 515 593 31,000  Level FlightAware ADS-B
Fri 08:35:16 PM 40.9550 -79.6860 66° East 516 594 31,000  Level FlightAware ADS-B
Fri 08:35:52 PM 40.9900 -79.5830 66° East 515 593 31,000  Level FlightAware ADS-B
Fri 08:36:28 PM 41.0230 -79.4820 67° East 515 593 31,000  Level FlightAware ADS-B
Fri 08:37:02 PM 41.0550 -79.3860 66° East 515 593 31,000  Level FlightAware ADS-B
Fri 08:37:41 PM 41.0930 -79.2710 66° East 514 592 31,000  Level FlightAware ADS-B
Fri 08:38:11 PM 41.1230 -79.1810 66° East 514 592 31,000  Level FlightAware ADS-B
Fri 08:38:49 PM 41.1570 -79.0770 67° East 513 590 31,000  Level FlightAware ADS-B
Fri 08:39:25 PM 41.1920 -78.9700 66° East 514 592 31,000  Level FlightAware ADS-B
Fri 08:39:57 PM 41.2220 -78.8770 67° East 512 589 31,000  Level FlightAware ADS-B
Fri 08:40:34 PM 41.2560 -78.7720 67° East 512 589 31,000  Level FlightAware ADS-B
Fri 08:41:09 PM 41.2900 -78.6690 66° East 512 589 31,000  Level FlightAware ADS-B
Fri 08:41:42 PM 41.3200 -78.5750 67° East 513 590 31,000  Level FlightAware ADS-B
Fri 08:42:17 PM 41.3530 -78.4740 66° East 513 590 31,000  Level FlightAware ADS-B
Fri 08:42:53 PM 41.3860 -78.3680 67° East 513 590 31,000  Level FlightAware ADS-B
Fri 08:43:30 PM 41.4210 -78.2600 67° East 513 590 31,000  Level FlightAware ADS-B
Fri 08:43:59 PM 41.4460 -78.1820 67° East 513 590 31,000  Level FlightAware ADS-B
Fri 08:44:35 PM 41.4790 -78.0790 67° East 511 588 31,000  Level FlightAware ADS-B
Fri 08:45:10 PM 41.5120 -77.9760 67° East 511 588 31,000  Level FlightAware ADS-B
Fri 08:45:46 PM 41.5460 -77.8840 64° Northeast 510 587 31,000  Level FlightAware ADS-B
Fri 08:46:31 PM 41.5930 -77.7510 65° Northeast 506 582 31,000  Level FlightAware ADS-B
Fri 08:47:10 PM 41.6310 -77.6440 65° Northeast 504 580 31,000  Level FlightAware ADS-B
Fri 08:47:51 PM 41.6740 -77.5240 64° Northeast 503 579 31,000  Level FlightAware ADS-B
Fri 08:48:30 PM 41.7120 -77.4180 64° Northeast 503 579 31,000  Level FlightAware ADS-B
Fri 08:49:05 PM 41.7480 -77.3180 64° Northeast 503 579 31,000  Level FlightAware ADS-B
Fri 08:49:35 PM 41.7790 -77.2290 65° Northeast 503 579 31,000  Level FlightAware ADS-B
Fri 08:50:15 PM 41.8130 -77.1200 67° East 503 579 31,000  Level FlightAware ADS-B
Fri 08:50:45 PM 41.8390 -77.0310 69° East 502 578 31,000  Level FlightAware ADS-B
Fri 08:51:21 PM 41.8670 -76.9270 70° East 503 579 31,000  Level FlightAware ADS-B
Fri 08:51:55 PM 41.8950 -76.8270 69° East 503 579 31,000  Level FlightAware ADS-B
Fri 08:52:35 PM 41.9280 -76.7090 69° East 504 580 31,000  Level FlightAware ADS-B
Fri 08:53:10 PM 41.9550 -76.6120 69° East 504 580 31,000  Level FlightAware ADS-B
Fri 08:53:40 PM 41.9810 -76.5170 70° East 504 580 31,000  Level FlightAware ADS-B
Fri 08:54:15 PM 42.0100 -76.4140 69° East 503 579 31,000  Level FlightAware ADS-B
Fri 08:54:55 PM 42.0440 -76.2900 70° East 502 578 31,000  Level FlightAware ADS-B
Fri 08:55:27 PM 42.0680 -76.2020 70° East 500 575 31,000  Level FlightAware ADS-B
Fri 08:56:05 PM 42.1000 -76.0860 70° East 500 575 31,000  Level FlightAware ADS-B
Fri 08:56:41 PM 42.1280 -75.9840 70° East 500 575 31,000  Level FlightAware ADS-B
Fri 08:57:13 PM 42.1530 -75.8890 70° East 499 574 31,000  Level FlightAware ADS-B
Fri 08:57:47 PM 42.1800 -75.7890 70° East 500 575 31,000  Level FlightAware ADS-B
Fri 08:58:25 PM 42.2090 -75.6800 70° East 500 575 31,000  Level FlightAware ADS-B
Fri 08:58:57 PM 42.2350 -75.5850 70° East 501 577 31,000  Level FlightAware ADS-B
Fri 08:59:33 PM 42.2630 -75.4790 70° East 502 578 31,000  Level FlightAware ADS-B
Fri 09:00:09 PM 42.2910 -75.3730 70° East 502 578 31,000  Level FlightAware ADS-B
Fri 09:00:45 PM 42.3190 -75.2650 71° East 503 579 31,000  Level FlightAware ADS-B
Fri 09:01:15 PM 42.3420 -75.1790 70° East 504 580 31,000  Level FlightAware ADS-B
Fri 09:01:54 PM 42.3720 -75.0640 71° East 505 581 31,000  Level FlightAware ADS-B
Fri 09:02:25 PM 42.3950 -74.9730 71° East 505 581 31,000  Level FlightAware ADS-B
Fri 09:03:05 PM 42.4270 -74.8520 70° East 506 582 31,000  Level FlightAware ADS-B
Fri 09:03:37 PM 42.4520 -74.7550 71° East 506 582 31,000  Level FlightAware ADS-B
Fri 09:04:14 PM 42.4790 -74.6490 71° East 505 581 31,000  Level FlightAware ADS-B
Fri 09:04:47 PM 42.5050 -74.5450 71° East 505 581 31,000  Level FlightAware ADS-B
Fri 09:05:24 PM 42.5320 -74.4400 71° East 506 582 31,000  Level FlightAware ADS-B
Fri 09:05:59 PM 42.5600 -74.3320 71° East 507 583 31,000  Level FlightAware ADS-B
Fri 09:06:35 PM 42.5850 -74.2300 72° East 508 585 31,000  Level FlightAware ADS-B
Fri 09:07:07 PM 42.6100 -74.1300 71° East 508 585 31,000  Level FlightAware ADS-B
Fri 09:07:43 PM 42.6390 -74.0170 71° East 508 585 31,000  Level FlightAware ADS-B
Fri 09:08:28 PM 42.6730 -73.8800 71° East 509 586 31,000  Level FlightAware ADS-B
Fri 09:09:01 PM 42.6970 -73.7800 72° East 510 587 31,000  Level FlightAware ADS-B
Fri 09:09:36 PM 42.7230 -73.6760 71° East 512 589 31,000  Level FlightAware ADS-B
Fri 09:10:10 PM 42.7480 -73.5720 72° East 511 588 31,000  Level FlightAware ADS-B
Fri 09:10:47 PM 42.7760 -73.4590 71° East 514 592 31,000  Level FlightAware ADS-B
Fri 09:11:19 PM 42.8010 -73.3580 71° East 517 595 31,000  Level FlightAware ADS-B
Fri 09:11:55 PM 42.8210 -73.2790 71° East 515 593 31,000  Level FlightAware ADS-B
Fri 09:12:31 PM 42.8610 -73.1420 68° East 517 595 31,000  Level FlightAware ADS-B
Fri 09:13:08 PM 42.8940 -73.0300 68° East 515 593 31,000  Level FlightAware ADS-B
Fri 09:13:40 PM 42.9220 -72.9340 68° East 517 595 31,000  Level FlightAware ADS-B
Fri 09:14:17 PM 42.9540 -72.8220 69° East 516 594 31,000  Level FlightAware ADS-B
Fri 09:14:52 PM 42.9840 -72.7130 69° East 516 594 31,000  Level FlightAware ADS-B
Fri 09:15:12 PM 43.0006 -72.6540 69° East 518 596 31,000  Level FlightAware ADS-B (KSNC)
Fri 09:16:01 PM 43.0430 -72.5030 69° East 519 597 31,000  Level FlightAware ADS-B
Fri 09:16:35 PM 43.0663 -72.4176 70° East 523 602 31,000  Level FlightAware ADS-B (KSNC)
Fri 09:17:08 PM 43.0970 -72.3065 69° East 524 603 31,000  Level FlightAware ADS-B (KSNC)
Fri 09:17:48 PM 43.1326 -72.1779 69° East 526 605 31,000  Level FlightAware ADS-B (KSNC)
Fri 09:18:19 PM 43.1596 -72.0796 69° East 528 608 31,000  Level FlightAware ADS-B (KSNC)
Fri 09:18:59 PM 43.1948 -71.9506 69° East 530 610 31,000  Level FlightAware ADS-B (KSNC)
Fri 09:19:35 PM 43.2251 -71.8393 69° East 532 612 31,000  Level FlightAware ADS-B
Fri 09:20:08 PM 43.2530 -71.7340 70° East 535 616 31,000  Level FlightAware ADS-B
Fri 09:20:29 PM 43.2717 -71.6672 69° East 538 619 31,000  Level FlightAware ADS-B
Fri 09:21:00 PM 43.2969 -71.5731 70° East 540 621 31,000  Level FlightAware ADS-B
Fri 09:21:32 PM 43.3255 -71.4661 70° East 543 625 31,000  Level FlightAware ADS-B
Fri 09:22:12 PM 43.3604 -71.3357 70° East 545 627 31,000  Level FlightAware ADS-B
Fri 09:22:46 PM 43.3895 -71.2262 70° East 547 629 31,000  Level FlightAware ADS-B
Fri 09:23:41 PM 43.4374 -71.0442 70° East 550 633 31,000 207 Level FlightAware ADS-B
Fri 09:24:13 PM 43.4650 -70.9390 70° East 552 635 31,300 732 Climbing FlightAware ADS-B
Fri 09:24:22 PM 43.4717 -70.9138 70° East 551 634 31,500 933 Climbing FlightAware ADS-B
Fri 09:24:58 PM 43.5042 -70.7890 70° East 551 634 32,000 380 Climbing FlightAware ADS-B
Fri 09:25:41 PM 43.5401 -70.6502 70° East 554 638 32,000  Level FlightAware ADS-B
Fri 09:26:14 PM 43.5663 -70.5490 70° East 555 639 32,000  Level FlightAware ADS-B
Fri 09:26:45 PM 43.5944 -70.4402 70° East 556 640 32,000  Level FlightAware ADS-B
Fri 09:27:20 PM 43.6238 -70.3258 70° East 557 641 32,000  Level FlightAware ADS-B
Fri 09:27:52 PM 43.6458 -70.2403 70° East 557 641 32,000  Level FlightAware ADS-B
Fri 09:28:52 PM 43.7040 -70.0110 71° East 556 640 32,000  Level FlightAware ADS-B
Fri 09:29:24 PM 43.7310 -69.9040 71° East 557 641 32,000  Level FlightAware ADS-B
Fri 09:30:02 PM 43.7620 -69.7820 71° East 557 641 32,000  Level FlightAware ADS-B
Fri 09:30:40 PM 43.7940 -69.6510 71° East 558 642 32,000  Level FlightAware ADS-B
Fri 09:31:40 PM 43.8400 -69.4650 71° East 559 643 32,000  Level FlightAware ADS-B
Fri 09:32:15 PM 43.8740 -69.3290 71° East 559 643 32,000  Level FlightAware ADS-B
Fri 09:32:52 PM 43.9050 -69.2030 71° East 560 644 32,000  Level FlightAware ADS-B
Fri 09:33:03 PM 43.9141 -69.1646 72° East 561 646 32,000 82 Level FlightAware ADS-B
Fri 09:34:05 PM 43.9654 -68.9531 71° East 563 648 32,100 505 Climbing FlightAware ADS-B
Fri 09:34:38 PM 43.9880 -68.8595 71° East 562 647 32,800 794 Climbing FlightAware ADS-B
Fri 09:35:13 PM 44.0213 -68.7204 72° East 560 644 33,000 160 Climbing FlightAware ADS-B
Fri 09:35:53 PM 44.0540 -68.5850 71° East 561 646 33,000  Level FlightAware ADS-B
Fri 09:36:23 PM 44.0759 -68.4904 72° East 562 647 33,000  Level FlightAware ADS-B
Fri 09:37:07 PM 44.1120 -68.3360 72° East 562 647 33,000  Level FlightAware ADS-B
Fri 09:37:44 PM 44.1420 -68.2090 72° East 563 648 33,000  Level FlightAware ADS-B
Fri 09:38:20 PM 44.1720 -68.0820 72° East 563 648 33,000  Level FlightAware ADS-B
Fri 09:38:56 PM 44.2010 -67.9550 72° East 564 649 33,000  Level FlightAware ADS-B
Fri 09:39:28 PM 44.2270 -67.8430 72° East 564 649 33,000  Level FlightAware ADS-B
Fri 09:40:04 PM 44.2550 -67.7190 72° East 565 650 33,000  Level FlightAware ADS-B
Fri 09:40:36 PM 44.2800 -67.6090 72° East 565 650 33,000  Level FlightAware ADS-B
Fri 09:41:13 PM 44.3090 -67.4820 72° East 564 649 33,000  Level FlightAware ADS-B
Fri 09:41:50 PM 44.3380 -67.3520 73° East 564 649 33,000  Level FlightAware ADS-B
Fri 09:42:22 PM 44.3630 -67.2400 73° East 565 650 33,000  Level FlightAware ADS-B
Fri 09:42:58 PM 44.3910 -67.1180 72° East 565 650 33,000  Level FlightAware ADS-B
Fri 09:43:35 PM 44.4190 -66.9890 73° East 564 649 33,000  Level FlightAware ADS-B
Fri 09:44:10 PM 44.4470 -66.8650 72° East 565 650 33,000  Level FlightAware ADS-B
Fri 09:44:42 PM 44.4720 -66.7540 72° East 566 651 33,000  Level FlightAware ADS-B
Fri 09:45:15 PM 44.4970 -66.6440 72° East 567 652 33,000  Level FlightAware ADS-B
Fri 09:45:54 PM 44.5290 -66.5030 72° East 565 650 33,000  Level FlightAware ADS-B
Fri 09:46:27 PM 44.5530 -66.3940 73° East 565 650 33,000  Level FlightAware ADS-B
Fri 09:47:02 PM 44.5810 -66.2650 73° East 564 649 33,000  Level FlightAware ADS-B
Fri 09:47:38 PM 44.6080 -66.1400 73° East 563 648 33,000  Level FlightAware ADS-B
Fri 09:48:14 PM 44.6350 -66.0170 73° East 564 649 33,000  Level FlightAware ADS-B
Fri 09:48:50 PM 44.6630 -65.8890 73° East 564 649 33,000  Level FlightAware ADS-B
Fri 09:49:26 PM 44.6900 -65.7620 73° East 563 648 33,000  Level FlightAware ADS-B
Fri 09:49:58 PM 44.7140 -65.6520 73° East 563 648 33,000  Level FlightAware ADS-B
Fri 09:50:34 PM 44.7400 -65.5280 74° East 564 649 33,000  Level FlightAware ADS-B
Fri 09:51:10 PM 44.7680 -65.3980 73° East 564 649 33,000  Level FlightAware ADS-B
Fri 09:51:42 PM 44.7900 -65.2920 74° East 563 648 33,000  Level FlightAware ADS-B
Fri 09:52:14 PM 44.8150 -65.1740 73° East 565 650 33,000  Level FlightAware ADS-B
Fri 09:52:53 PM 44.8440 -65.0340 74° East 565 650 33,000  Level FlightAware ADS-B
Fri 09:53:30 PM 44.8710 -64.9050 74° East 566 651 33,000  Level FlightAware ADS-B
Fri 09:54:02 PM 44.8940 -64.7920 74° East 567 652 33,000  Level FlightAware ADS-B
Fri 09:54:40 PM 44.9210 -64.6590 74° East 568 654 33,000  Level FlightAware ADS-B
Fri 09:55:16 PM 44.9470 -64.5290 74° East 568 654 33,000  Level FlightAware ADS-B
Fri 09:55:48 PM 44.9700 -64.4150 74° East 568 654 33,000  Level FlightAware ADS-B
Fri 09:56:26 PM 44.9960 -64.2860 74° East 568 654 33,000  Level FlightAware ADS-B
Fri 09:56:58 PM 45.0200 -64.1670 74° East 567 652 33,000  Level FlightAware ADS-B
Fri 09:57:34 PM 45.0460 -64.0360 74° East 567 652 33,000  Level FlightAware ADS-B
Fri 09:58:10 PM 45.0700 -63.9110 75° East 566 651 33,000  Level FlightAware ADS-B
Fri 09:58:40 PM 45.0900 -63.8100 74° East 565 650 33,000  Level FlightAware ADS-B
Fri 09:59:13 PM 45.1140 -63.6860 75° East 566 651 33,000  Level FlightAware ADS-B
Fri 09:59:53 PM 45.1410 -63.5430 75° East 567 652 33,000  Level FlightAware ADS-B
Fri 10:00:28 PM 45.1650 -63.4200 74° East 567 652 33,000  Level FlightAware ADS-B
Fri 10:01:03 PM 45.1890 -63.2940 75° East 566 651 33,000  Level FlightAware ADS-B
Fri 10:01:33 PM 45.2090 -63.1890 75° East 566 651 33,000  Level FlightAware ADS-B
Fri 10:02:16 PM 45.1610 -63.4400 255° West 567 652 33,000  Level FlightAware ADS-B
Fri 10:02:55 PM 45.1810 -63.3350 75° East 566 651 33,000  Level FlightAware ADS-B
Fri 10:03:31 PM 45.2030 -63.2220 75° East 566 651 33,000  Level FlightAware ADS-B
Fri 10:04:07 PM 45.2240 -63.1100 75° East 566 651 33,000  Level FlightAware ADS-B
Fri 10:04:53 PM 45.2520 -62.9620 75° East 567 652 33,000  Level FlightAware ADS-B
Fri 10:05:32 PM 45.2860 -62.7770 75° East 567 652 33,000  Level FlightAware ADS-B
Fri 10:06:12 PM 45.3190 -62.5940 76° East 568 654 33,000  Level FlightAware ADS-B
Fri 10:06:59 PM 45.3480 -62.4320 76° East 568 654 33,000  Level FlightAware ADS-B
Fri 10:07:53 PM 45.3840 -62.2360 75° East 568 654 33,000  Level FlightAware ADS-B
Fri 10:08:29 PM 45.4030 -62.1250 76° East 568 654 33,000  Level FlightAware ADS-B
Fri 10:09:05 PM 45.4230 -62.0140 76° East 568 654 33,000  Level FlightAware ADS-B
Fri 10:09:41 PM 45.4420 -61.9030 76° East 568 654 33,000  Level FlightAware ADS-B
Fri 10:10:17 PM 45.4610 -61.7910 76° East 568 654 33,000  Level FlightAware ADS-B
Fri 10:10:49 PM 45.5680 -61.1790 76° East 569 655 33,000  Level FlightAware ADS-B
Fri 10:11:25 PM 45.5900 -61.0450 77° East 569 655 33,000  Level FlightAware ADS-B
Fri 10:12:01 PM 45.6120 -60.9160 76° East 569 655 33,000  Level FlightAware ADS-B
Fri 10:12:38 PM 45.6330 -60.7860 77° East 570 656 33,000  Level FlightAware ADS-B
Fri 10:13:11 PM 45.6540 -60.6610 76° East 570 656 33,000  Level FlightAware ADS-B
Fri 10:13:47 PM 45.6760 -60.5270 77° East 570 656 33,000  Level FlightAware ADS-B
Fri 10:14:23 PM 45.6970 -60.3930 77° East 571 657 33,000  Level FlightAware ADS-B
Fri 10:14:59 PM 45.7180 -60.2640 77° East 572 658 33,000  Level FlightAware ADS-B
Fri 10:15:31 PM 45.7370 -60.1440 77° East 574 661 33,000  Level FlightAware ADS-B
Fri 10:16:04 PM 45.7560 -60.0240 77° East 574 661 33,000  Level FlightAware ADS-B
Fri 10:16:44 PM 45.7790 -59.8750 77° East 574 661 33,000  Level FlightAware ADS-B
Fri 10:17:16 PM 45.7980 -59.7550 77° East 575 662 33,000  Level FlightAware ADS-B
Fri 10:17:52 PM 45.8190 -59.6230 77° East 575 662 33,000  Level FlightAware ADS-B
Fri 10:18:28 PM 45.8390 -59.4880 78° East 577 664 33,000  Level FlightAware ADS-B
Fri 10:19:04 PM 45.8600 -59.3530 77° East 578 665 33,000  Level FlightAware ADS-B
Fri 10:19:36 PM 45.8770 -59.2360 78° East 579 666 33,000  Level FlightAware ADS-B
Fri 10:20:12 PM 45.8980 -59.0990 78° East 579 666 33,000  Level FlightAware ADS-B
Fri 10:20:48 PM 45.9170 -58.9660 78° East 581 669 33,000  Level FlightAware ADS-B
Fri 10:21:20 PM 45.9350 -58.8450 78° East 582 670 33,000  Level FlightAware ADS-B
Fri 10:21:56 PM 45.9550 -58.7070 78° East 584 672 33,000  Level FlightAware ADS-B
Fri 10:22:31 PM 45.9740 -58.5780 78° East 584 672 33,000  Level FlightAware ADS-B
Fri 10:23:08 PM 45.9940 -58.4340 79° East 585 673 33,000  Level FlightAware ADS-B
Fri 10:23:36 PM 46.0100 -58.3270 78° East 587 676 33,000  Level FlightAware ADS-B
Fri 10:24:24 PM 46.0330 -58.1620 79° East 588 677 33,000  Level FlightAware ADS-B
Fri 10:25:01 PM 46.0510 -58.0420 78° East 588 677 33,000  Level FlightAware ADS-B
Fri 10:25:35 PM 46.0670 -57.9310 78° East 588 677 33,000  Level FlightAware ADS-B
Fri 10:26:12 PM 46.0850 -57.8100 78° East 588 677 33,000  Level FlightAware ADS-B
Fri 10:26:43 PM 46.1070 -57.6170 81° East 577 664 33,000  Level FlightAware ADS-B
Fri 10:27:17 PM 46.1240 -57.4900 79° East 574 661 33,000  Level FlightAware ADS-B
Fri 10:27:54 PM 46.1430 -57.3500 79° East 569 655 33,000  Level FlightAware ADS-B
Fri 10:28:29 PM 46.1600 -57.2240 79° East 569 655 33,000  Level FlightAware ADS-B
Fri 10:29:05 PM 46.1780 -57.0890 79° East 566 651 33,000  Level FlightAware ADS-B
Fri 10:29:39 PM 46.1960 -56.9650 78° East 561 646 33,000  Level FlightAware ADS-B
Fri 10:30:14 PM 46.2160 -56.8350 77° East 561 646 33,000  Level FlightAware ADS-B
Fri 10:30:51 PM 46.2360 -56.7000 78° East 562 647 33,000  Level FlightAware ADS-B
Fri 10:31:27 PM 46.2560 -56.5670 78° East 560 644 33,000  Level FlightAware ADS-B
Fri 10:32:00 PM 46.2720 -56.4480 79° East 562 647 33,000  Level FlightAware ADS-B
Fri 10:32:36 PM 46.2910 -56.3160 78° East 562 647 33,000  Level FlightAware ADS-B
Fri 10:33:11 PM 46.3090 -56.1870 79° East 563 648 33,000  Level FlightAware ADS-B
Fri 10:33:44 PM 46.3260 -56.0670 78° East 563 648 33,000  Level FlightAware ADS-B
Fri 10:34:19 PM 46.3440 -55.9340 79° East 562 647 33,000  Level FlightAware ADS-B
Fri 10:34:57 PM 46.3630 -55.7980 79° East 564 649 33,000  Level FlightAware ADS-B
Fri 10:35:29 PM 46.3790 -55.6770 79° East 565 650 33,000  Level FlightAware ADS-B
Fri 10:36:06 PM 46.3980 -55.5400 79° East 566 651 33,000  Level FlightAware ADS-B
Fri 10:36:34 PM 46.4120 -55.4360 79° East 566 651 33,000  Level FlightAware ADS-B
Fri 10:37:07 PM 46.4280 -55.3150 79° East 568 654 33,000  Level FlightAware ADS-B
Fri 10:37:45 PM 46.4470 -55.1710 79° East 568 654 33,000  Level FlightAware ADS-B
Fri 10:38:22 PM 46.4650 -55.0330 79° East 570 656 33,000  Level FlightAware ADS-B
Fri 10:38:55 PM 46.4810 -54.9090 79° East 573 659 33,000  Level FlightAware ADS-B
Fri 10:39:30 PM 46.4980 -54.7780 79° East 574 661 33,000  Level FlightAware ADS-B
Fri 10:40:06 PM 46.5150 -54.6420 80° East 576 663 33,000  Level FlightAware ADS-B
Fri 10:40:39 PM 46.5310 -54.5160 79° East 576 663 33,000  Level FlightAware ADS-B
Fri 10:41:16 PM 46.5480 -54.3750 80° East 578 665 33,000  Level FlightAware ADS-B
Fri 10:41:48 PM 46.5630 -54.2510 80° East 578 665 33,000  Level FlightAware ADS-B
Fri 10:42:25 PM 46.5810 -54.1090 80° East 579 666 33,000  Level FlightAware ADS-B
Fri 10:43:01 PM 46.5970 -53.9720 80° East 581 669 33,000  Level FlightAware ADS-B
Fri 10:43:36 PM 46.6130 -53.8370 80° East 582 670 33,000  Level FlightAware ADS-B
Fri 10:44:09 PM 46.6280 -53.7110 80° East 583 671 33,000  Level FlightAware ADS-B
Fri 10:44:43 PM 46.6430 -53.5780 81° East 585 673 33,000  Level FlightAware ADS-B
Fri 10:45:21 PM 46.6600 -53.4330 80° East 589 678 33,000  Level FlightAware ADS-B
Fri 10:45:57 PM 46.6770 -53.2900 80° East 587 676 33,000  Level FlightAware ADS-B
Fri 10:46:28 PM 46.6900 -53.1730 81° East 587 676 33,000  Level FlightAware ADS-B
Fri 10:47:05 PM 46.7060 -53.0270 81° East 588 677 33,000  Level FlightAware ADS-B
Fri 10:47:40 PM 46.7210 -52.8920 81° East 588 677 33,000  Level FlightAware ADS-B
Fri 10:48:12 PM 46.7350 -52.7660 81° East 588 677 33,000  Level FlightAware ADS-B
Fri 10:48:49 PM 46.7500 -52.6210 81° East 590 679 33,000  Level FlightAware ADS-B
Fri 10:49:25 PM 46.7650 -52.4810 81° East 589 678 33,000  Level FlightAware ADS-B
Fri 10:50:01 PM 46.7800 -52.3370 81° East 591 680 33,000  Level FlightAware ADS-B
Fri 10:50:34 PM 46.7940 -52.2080 81° East 592 681 33,000  Level FlightAware ADS-B
Fri 10:51:10 PM 46.8080 -52.0670 82° East 593 682 33,000  Level FlightAware ADS-B
Fri 10:51:45 PM 46.8220 -51.9290 82° East 594 684 33,000  Level FlightAware ADS-B
Fri 10:52:18 PM 46.8350 -51.7990 82° East 594 684 33,000  Level FlightAware ADS-B
Fri 10:52:56 PM 46.8500 -51.6460 82° East 597 687 33,000  Level FlightAware ADS-B
Fri 10:53:29 PM 46.8630 -51.5170 82° East 597 687 33,000  Level FlightAware ADS-B
Fri 10:54:04 PM 46.8770 -51.3750 82° East 599 689 33,000  Level FlightAware ADS-B
Fri 10:54:40 PM 46.8910 -51.2290 82° East 600 690 33,000  Level FlightAware ADS-B
Fri 10:55:15 PM 46.9040 -51.0900 82° East 601 692 33,000  Level FlightAware ADS-B
Fri 10:55:47 PM 46.9160 -50.9600 82° East 602 693 33,000  Level FlightAware ADS-B
Fri 10:56:26 PM 46.9300 -50.8080 82° East 602 693 33,000  Level FlightAware ADS-B
Fri 10:57:02 PM 46.9430 -50.6650 82° East 603 694 33,000  Level FlightAware ADS-B
Fri 10:57:39 PM 46.9550 -50.5380 82° East 603 694 33,000  Level FlightAware ADS-B
Fri 10:58:15 PM 46.9670 -50.4140 82° East 603 694 33,000  Level FlightAware ADS-B
Fri 10:58:54 PM 46.9830 -50.2060 83° East 604 695 33,000  Level FlightAware ADS-B
Fri 10:59:29 PM 46.9960 -50.0670 82° East 602 693 33,000  Level FlightAware ADS-B
Fri 11:00:01 PM 47.0170 -49.9390 76° East 597 687 33,000  Level FlightAware ADS-B
Fri 11:00:38 PM 47.0500 -49.7990 71° East 595 685 33,000  Level FlightAware ADS-B
Fri 11:01:13 PM 47.0830 -49.6670 70° East 597 687 33,000  Level FlightAware ADS-B
Fri 11:01:45 PM 47.1140 -49.5440 70° East 597 687 33,000  Level FlightAware ADS-B
Fri 11:02:22 PM 47.1460 -49.4150 70° East 597 687 33,000  Level FlightAware ADS-B
Fri 11:02:59 PM 47.1760 -49.2950 70° East 597 687 33,000  Level FlightAware ADS-B
Fri 11:03:35 PM 47.2050 -49.1780 70° East 597 687 33,000  Level FlightAware ADS-B
Fri 11:04:11 PM 47.2340 -49.0610 70° East 597 687 33,000  Level FlightAware ADS-B
Fri 11:04:47 PM 47.2630 -48.9440 70° East 597 687 33,000  Level FlightAware ADS-B
Fri 11:05:23 PM 47.2910 -48.8270 71° East 597 687 33,000  Level FlightAware ADS-B
Fri 11:06:00 PM 47.3210 -48.7060 70° East 597 687 33,000  Level FlightAware ADS-B
Fri 11:06:36 PM 47.3500 -48.5890 70° East 597 687 33,000  Level FlightAware ADS-B
Fri 11:07:12 PM 47.3790 -48.4720 70° East 597 687 33,000  Level FlightAware ADS-B
Fri 11:07:48 PM 47.4080 -48.3550 70° East 597 687 33,000  Level FlightAware ADS-B
Fri 11:08:24 PM 47.4370 -48.2370 70° East 597 687 33,000  Level FlightAware ADS-B
Fri 11:09:00 PM 47.4660 -48.1200 70° East 597 687 33,000  Level FlightAware ADS-B
Fri 11:09:36 PM 47.4940 -48.0020 71° East 597 687 33,000  Level FlightAware ADS-B
Fri 11:10:12 PM 47.5230 -47.8850 70° East 597 687 33,000  Level FlightAware ADS-B
Fri 11:10:48 PM 47.5520 -47.7670 70° East 597 687 33,000  Level FlightAware ADS-B
Fri 11:11:31 PM 47.5870 -47.6260 70° East 597 687 33,000  Level FlightAware ADS-B
Fri 11:12:07 PM 47.6160 -47.5090 70° East 597 687 33,000  Level FlightAware ADS-B
Fri 11:12:50 PM 47.7000 -46.9333 70° East 600 690 33,000  Level Gander Center
Fri 11:13:50 PM 47.7500 -46.7167 71° East 600 690 33,000 12 Level Gander Center
Fri 11:16:00 PM 47.8439 -46.3119 71° East  Level FlightAware Approximate
Fri 11:23:00 PM 48.1484 -44.8909 72° East  Level FlightAware Approximate
Fri 11:24:00 PM 48.1875 -44.6936 73° East  Level FlightAware Approximate
Fri 11:25:00 PM 48.2261 -44.4959 74° East  Level FlightAware Approximate
Fri 11:26:00 PM 48.2644 -44.2979 74° East  Level FlightAware Approximate
Fri 11:27:00 PM 48.3024 -44.0997 74° East  Level FlightAware Approximate
Fri 11:28:00 PM 48.3400 -43.9011 74° East  Level FlightAware Approximate
Fri 11:29:00 PM 48.3773 -43.7023 74° East  Level FlightAware Approximate
Fri 11:30:00 PM 48.4142 -43.5032 74° East  Level FlightAware Approximate
Fri 11:31:00 PM 48.4508 -43.3037 74° East  Level FlightAware Approximate
Fri 11:32:00 PM 48.4870 -43.1040 75° East  Level FlightAware Approximate
Fri 11:33:00 PM 48.5229 -42.9041 75° East  Level FlightAware Approximate
Fri 11:34:00 PM 48.5585 -42.7038 75° East  Level FlightAware Approximate
Fri 11:35:00 PM 48.5937 -42.5032 75° East  Level FlightAware Approximate
Fri 11:36:00 PM 48.6285 -42.3024 75° East  Level FlightAware Approximate
Fri 11:37:00 PM 48.6630 -42.1013 75° East  Level FlightAware Approximate
Fri 11:38:00 PM 48.6972 -41.8999 76° East  Level FlightAware Approximate
Fri 11:39:00 PM 48.7310 -41.6983 76° East  Level FlightAware Approximate
Fri 11:40:00 PM 48.7644 -41.4964 76° East  Level FlightAware Approximate
Fri 11:41:00 PM 48.7975 -41.2942 76° East  Level FlightAware Approximate
Fri 11:42:00 PM 48.8303 -41.0917 76° East  Level FlightAware Approximate
Fri 11:43:00 PM 48.8627 -40.8890 76° East  Level FlightAware Approximate
Fri 11:44:00 PM 48.8947 -40.6856 76° East  Level FlightAware Approximate
Fri 11:45:00 PM 48.9265 -40.4820 77° East  Level FlightAware Approximate
Fri 11:46:00 PM 48.9579 -40.2781 77° East  Level FlightAware Approximate
Fri 11:47:00 PM 48.9889 -40.0740 77° East  Level FlightAware Approximate
Fri 11:48:00 PM 49.0190 -39.8694 77° East  Level FlightAware Approximate
Fri 11:49:00 PM 49.0484 -39.6645 78° East  Level FlightAware Approximate
Fri 11:50:00 PM 49.0775 -39.4593 78° East  Level FlightAware Approximate
Fri 11:51:00 PM 49.1062 -39.2539 78° East  Level FlightAware Approximate
Fri 11:52:00 PM 49.1346 -39.0483 78° East  Level FlightAware Approximate
Fri 11:53:00 PM 49.1626 -38.8424 78° East  Level FlightAware Approximate
Fri 11:54:00 PM 49.1902 -38.6363 78° East  Level FlightAware Approximate
Fri 11:55:00 PM 49.2174 -38.4299 78° East  Level FlightAware Approximate
Fri 11:56:00 PM 49.2443 -38.2234 79° East  Level FlightAware Approximate
Fri 11:57:00 PM 49.2708 -38.0166 79° East  Level FlightAware Approximate
Fri 11:58:00 PM 49.2970 -37.8096 79° East  Level FlightAware Approximate
Fri 11:59:00 PM 49.3228 -37.6023 79° East  Level FlightAware Approximate
Sat 12:00:00 AM 49.3482 -37.3949 79° East  Level FlightAware Approximate
Sat 12:01:00 AM 49.3732 -37.1872 79° East  Level FlightAware Approximate
Sat 12:02:00 AM 49.3979 -36.9794 80° East  Level FlightAware Approximate
Sat 12:03:00 AM 49.4222 -36.7713 80° East  Level FlightAware Approximate
Sat 12:04:00 AM 49.4461 -36.5630 80° East  Level FlightAware Approximate
Sat 12:05:00 AM 49.4696 -36.3545 80° East  Level FlightAware Approximate
Sat 12:06:00 AM 49.4928 -36.1458 80° East  Level FlightAware Approximate
Sat 12:07:00 AM 49.5156 -35.9370 80° East  Level FlightAware Approximate
Sat 12:08:00 AM 49.5380 -35.7279 81° East  Level FlightAware Approximate
Sat 12:09:00 AM 49.5601 -35.5186 81° East  Level FlightAware Approximate
Sat 12:10:00 AM 49.5817 -35.3092 81° East  Level FlightAware Approximate
Sat 12:11:00 AM 49.6030 -35.0995 81° East  Level FlightAware Approximate
Sat 12:12:00 AM 49.6239 -34.8897 81° East  Level FlightAware Approximate
Sat 12:13:00 AM 49.6444 -34.6797 81° East  Level FlightAware Approximate
Sat 12:14:00 AM 49.6646 -34.4696 81° East  Level FlightAware Approximate
Sat 12:15:00 AM 49.6843 -34.2592 82° East  Level FlightAware Approximate
Sat 12:16:00 AM 49.7037 -34.0487 82° East  Level FlightAware Approximate
Sat 12:17:00 AM 49.7227 -33.8380 82° East  Level FlightAware Approximate
Sat 12:18:00 AM 49.7413 -33.6272 82° East  Level FlightAware Approximate
Sat 12:19:00 AM 49.7595 -33.4162 82° East  Level FlightAware Approximate
Sat 12:20:00 AM 49.7774 -33.2050 82° East  Level FlightAware Approximate
Sat 12:21:00 AM 49.7949 -32.9937 83° East  Level FlightAware Approximate
Sat 12:22:00 AM 49.8120 -32.7823 83° East  Level FlightAware Approximate
Sat 12:23:00 AM 49.8287 -32.5707 83° East  Level FlightAware Approximate
Sat 12:24:00 AM 49.8450 -32.3589 83° East  Level FlightAware Approximate
Sat 12:25:00 AM 49.8609 -32.1470 83° East  Level FlightAware Approximate
Sat 12:26:00 AM 49.8764 -31.9350 83° East  Level FlightAware Approximate
Sat 12:27:00 AM 49.8916 -31.7228 84° East  Level FlightAware Approximate
Sat 12:28:00 AM 49.9063 -31.5105 84° East  Level FlightAware Approximate
Sat 12:29:00 AM 49.9207 -31.2981 84° East  Level FlightAware Approximate
Sat 12:30:00 AM 49.9347 -31.0855 84° East  Level FlightAware Approximate
Sat 12:31:00 AM 49.9483 -30.8729 84° East  Level FlightAware Approximate
Sat 12:32:00 AM 49.9615 -30.6601 84° East  Level FlightAware Approximate
Sat 12:33:00 AM 49.9743 -30.4472 85° East  Level FlightAware Approximate
Sat 12:34:00 AM 49.9868 -30.2341 85° East  Level FlightAware Approximate
Sat 12:35:00 AM 49.9988 -30.0210 85° East  Level FlightAware Approximate
Sat 12:36:00 AM 50.0442 -29.8197 69° East  Level FlightAware Approximate
Sat 12:37:00 AM 50.0929 -29.6193 69° East  Level FlightAware Approximate
Sat 12:38:00 AM 50.1413 -29.4185 69° East  Level FlightAware Approximate
Sat 12:39:00 AM 50.1893 -29.2173 69° East  Level FlightAware Approximate
Sat 12:40:00 AM 50.2370 -29.0157 70° East  Level FlightAware Approximate
Sat 12:41:00 AM 50.2843 -28.8137 70° East  Level FlightAware Approximate
Sat 12:42:00 AM 50.3313 -28.6112 70° East  Level FlightAware Approximate
Sat 12:43:00 AM 50.3779 -28.4084 70° East  Level FlightAware Approximate
Sat 12:44:00 AM 50.4242 -28.2052 70° East  Level FlightAware Approximate
Sat 12:45:00 AM 50.4701 -28.0016 70° East  Level FlightAware Approximate
Sat 12:46:00 AM 50.5156 -27.7976 71° East  Level FlightAware Approximate
Sat 12:47:00 AM 50.5608 -27.5932 71° East  Level FlightAware Approximate
Sat 12:48:00 AM 50.6066 -27.3889 70° East  Level FlightAware Approximate
Sat 12:49:00 AM 50.6522 -27.1843 71° East  Level FlightAware Approximate
Sat 12:50:00 AM 50.6974 -26.9793 71° East  Level FlightAware Approximate
Sat 12:51:00 AM 50.7422 -26.7739 71° East  Level FlightAware Approximate
Sat 12:52:00 AM 50.7867 -26.5682 71° East  Level FlightAware Approximate
Sat 12:53:00 AM 50.8308 -26.3620 71° East  Level FlightAware Approximate
Sat 12:54:00 AM 50.8757 -26.1561 71° East  Level FlightAware Approximate
Sat 12:55:00 AM 50.9204 -25.9498 71° East  Level FlightAware Approximate
Sat 12:56:00 AM 50.9647 -25.7432 71° East  Level FlightAware Approximate
Sat 12:57:00 AM 51.0087 -25.5361 71° East  Level FlightAware Approximate
Sat 12:58:00 AM 51.0522 -25.3287 71° East  Level FlightAware Approximate
Sat 12:59:00 AM 51.0955 -25.1209 72° East  Level FlightAware Approximate
Sat 01:00:00 AM 51.1383 -24.9127 72° East  Level FlightAware Approximate
Sat 01:01:00 AM 51.1808 -24.7041 72° East  Level FlightAware Approximate
Sat 01:02:00 AM 51.2229 -24.4951 72° East  Level FlightAware Approximate
Sat 01:03:00 AM 51.2646 -24.2857 72° East  Level FlightAware Approximate
Sat 01:04:00 AM 51.3060 -24.0760 72° East  Level FlightAware Approximate
Sat 01:05:00 AM 51.3469 -23.8659 73° East  Level FlightAware Approximate
Sat 01:06:00 AM 51.3865 -23.6549 73° East  Level FlightAware Approximate
Sat 01:07:00 AM 51.4255 -23.4434 73° East  Level FlightAware Approximate
Sat 01:08:00 AM 51.4642 -23.2316 74° East  Level FlightAware Approximate
Sat 01:09:00 AM 51.5025 -23.0195 74° East  Level FlightAware Approximate
Sat 01:10:00 AM 51.5404 -22.8070 74° East  Level FlightAware Approximate
Sat 01:11:00 AM 51.5779 -22.5942 74° East  Level FlightAware Approximate
Sat 01:12:00 AM 51.6151 -22.3810 74° East  Level FlightAware Approximate
Sat 01:13:00 AM 51.6519 -22.1675 74° East  Level FlightAware Approximate
Sat 01:14:00 AM 51.6882 -21.9536 75° East  Level FlightAware Approximate
Sat 01:15:00 AM 51.7242 -21.7393 75° East  Level FlightAware Approximate
Sat 01:16:00 AM 51.7598 -21.5248 75° East  Level FlightAware Approximate
Sat 01:17:00 AM 51.7950 -21.3099 75° East  Level FlightAware Approximate
Sat 01:18:00 AM 51.8298 -21.0946 75° East  Level FlightAware Approximate
Sat 01:19:00 AM 51.8642 -20.8791 75° East  Level FlightAware Approximate
Sat 01:20:00 AM 51.8983 -20.6632 76° East  Level FlightAware Approximate
Sat 01:21:00 AM 51.9319 -20.4470 76° East  Level FlightAware Approximate
Sat 01:22:00 AM 51.9651 -20.2304 76° East  Level FlightAware Approximate
Sat 01:23:00 AM 51.9978 -20.0144 76° East  Level FlightAware Approximate
Sat 01:24:00 AM 52.0075 -19.7926 87° East  Level FlightAware Approximate
Sat 01:25:00 AM 52.0152 -19.5704 87° East  Level FlightAware Approximate
Sat 01:26:00 AM 52.0225 -19.3481 87° East  Level FlightAware Approximate
Sat 01:27:00 AM 52.0294 -19.1257 87° East  Level FlightAware Approximate
Sat 01:28:00 AM 52.0358 -18.9032 87° East  Level FlightAware Approximate
Sat 01:29:00 AM 52.0418 -18.6807 87° East  Level FlightAware Approximate
Sat 01:30:00 AM 52.0474 -18.4581 88° East  Level FlightAware Approximate
Sat 01:31:00 AM 52.0526 -18.2355 88° East  Level FlightAware Approximate
Sat 01:32:00 AM 52.0573 -18.0128 88° East  Level FlightAware Approximate
Sat 01:33:00 AM 52.0616 -17.7901 88° East  Level FlightAware Approximate
Sat 01:34:00 AM 52.0656 -17.5673 88° East  Level FlightAware Approximate
Sat 01:35:00 AM 52.0692 -17.3445 88° East  Level FlightAware Approximate
Sat 01:36:00 AM 52.0726 -17.1217 89° East  Level FlightAware Approximate
Sat 01:37:00 AM 52.0755 -16.8988 89° East  Level FlightAware Approximate
Sat 01:38:00 AM 52.0780 -16.6759 89° East  Level FlightAware Approximate
Sat 01:39:00 AM 52.0801 -16.4530 89° East  Level FlightAware Approximate
Sat 01:40:00 AM 52.0817 -16.2301 89° East  Level FlightAware Approximate
Sat 01:41:00 AM 52.0830 -16.0071 89° East  Level FlightAware Approximate
Sat 01:42:00 AM 52.0838 -15.7842 90° East  Level FlightAware Approximate
Sat 01:43:00 AM 52.0842 -15.5612 90° East  Level FlightAware Approximate
Sat 01:44:00 AM 52.0842 -15.3378 90° East  Level FlightAware Approximate
Sat 01:45:00 AM 52.0837 -15.1144 90° East  Level FlightAware Approximate
Sat 01:46:00 AM 52.0831 -14.8910 90° East  Level FlightAware Approximate
Sat 01:47:00 AM 52.0823 -14.6676 90° East  Level FlightAware Approximate
Sat 01:48:00 AM 52.0811 -14.4442 90° East  Level FlightAware Approximate
Sat 01:49:00 AM 52.0795 -14.2209 91° East  Level FlightAware Approximate
Sat 01:50:00 AM 52.0774 -13.9975 91° East  Level FlightAware Approximate
Sat 01:51:00 AM 52.0749 -13.7742 91° East  Level FlightAware Approximate
Sat 01:52:00 AM 52.0720 -13.5509 91° East  Level FlightAware Approximate
Sat 01:53:00 AM 52.0687 -13.3277 91° East  Level FlightAware Approximate
Sat 01:54:00 AM 52.0649 -13.1044 91° East  Level FlightAware Approximate
Sat 01:55:00 AM 52.0608 -12.8813 92° East  Level FlightAware Approximate
Sat 01:56:00 AM 52.0562 -12.6581 92° East  Level FlightAware Approximate
Sat 01:57:00 AM 52.0512 -12.4350 92° East  Level FlightAware Approximate
Sat 01:57:35 AM 51.9930 -12.0320 92° East 433 498 35,000  Level FlightAware ADS-B
Sat 01:58:00 AM 52.0457 -12.2120 92° East  Level FlightAware Approximate
Sat 01:58:05 AM 51.9910 -11.9390 92° East 433 498 35,000  Level FlightAware ADS-B
Sat 01:58:45 AM 51.9890 -11.8200 92° East 432 497 35,000  Level FlightAware ADS-B
Sat 01:59:25 AM 51.9870 -11.6760 91° East 433 498 35,000  Level FlightAware ADS-B
Sat 02:00:05 AM 51.9840 -11.5480 92° East 432 497 35,000  Level FlightAware ADS-B
Sat 02:00:40 AM 51.9820 -11.4330 92° East 431 496 35,000  Level FlightAware ADS-B
Sat 02:01:16 AM 51.9800 -11.3190 92° East 431 496 35,000  Level FlightAware ADS-B
Sat 02:01:45 AM 51.9780 -11.2340 92° East 431 496 35,000  Level FlightAware ADS-B
Sat 02:02:25 AM 51.9750 -11.1000 92° East 431 496 35,000  Level FlightAware ADS-B
Sat 02:03:00 AM 51.9720 -10.9850 92° East 432 497 35,000  Level FlightAware ADS-B
Sat 02:03:37 AM 51.9690 -10.8720 92° East 432 497 35,000  Level FlightAware ADS-B
Sat 02:04:13 AM 51.9660 -10.7560 92° East 431 496 35,000  Level FlightAware ADS-B
Sat 02:04:46 AM 51.9640 -10.6550 92° East 430 495 35,000  Level FlightAware ADS-B
Sat 02:05:18 AM 51.9610 -10.5480 93° East 430 495 35,000  Level FlightAware ADS-B
Sat 02:05:53 AM 51.9570 -10.4260 93° East 430 495 35,000  Level FlightAware ADS-B
Sat 02:06:33 AM 51.9540 -10.2980 92° East 430 495 35,000  Level FlightAware ADS-B
Sat 02:07:03 AM 51.9510 -10.2030 93° East 430 495 35,000  Level FlightAware ADS-B
Sat 02:07:38 AM 51.9470 -10.0900 93° East 430 495 35,000  Level FlightAware ADS-B
Sat 02:08:18 AM 51.9430 -9.9620 93° East 431 496 35,000  Level FlightAware ADS-B
Sat 02:08:53 AM 51.9390 -9.8490 93° East 430 495 35,000  Level FlightAware ADS-B
Sat 02:09:23 AM 51.9360 -9.7510 93° East 431 496 35,000  Level FlightAware ADS-B
Sat 02:10:00 AM 51.9320 -9.6390 93° East 432 497 35,000  Level FlightAware ADS-B
Sat 02:10:38 AM 51.9270 -9.5090 94° East 430 495 35,000  Level FlightAware ADS-B
Sat 02:11:27 AM 51.9230 -9.3800 93° East 430 495 35,000  Level FlightAware ADS-B
Sat 02:11:59 AM 51.9180 -9.2480 93° East 431 496 35,000  Level FlightAware ADS-B
Sat 02:12:34 AM 51.9130 -9.1370 94° East 433 498 35,000  Level FlightAware ADS-B
Sat 02:13:14 AM 51.9080 -9.0080 94° East 434 499 35,000 -79 Level FlightAware ADS-B
Sat 02:13:50 AM 51.9022 -8.8853 94° East 492 566 34,900  Descending FlightAware UK
Sat 02:13:54 AM 51.9020 -8.8770 94° East 434 499 35,000 600 Climbing FlightAware ADS-B
Sat 02:14:00 AM 51.9023 -8.8729 83° East 434 499 35,000 -107 Level FlightAware ADS-B
Sat 02:14:50 AM 51.8942 -8.6917 83° East 490 564 34,900  Descending FlightAware UK
Sat 02:14:59 AM 51.8940 -8.6690 83° East 432 497 35,000 136 Climbing FlightAware ADS-B
Sat 02:15:34 AM 51.8887 -8.5572 94° East 434 499 35,000  Level FlightAware ADS-B
Sat 02:16:14 AM 51.8830 -8.4270 94° East 436 502 35,000  Level FlightAware ADS-B
Sat 02:16:51 AM 51.8768 -8.2991 94° East 439 505 35,000  Level FlightAware ADS-B
Sat 02:17:25 AM 51.8716 -8.1896 94° East 439 505 35,000  Level FlightAware ADS-B
Sat 02:17:55 AM 51.8669 -8.0922 94° East 440 506 35,000  Level FlightAware ADS-B
Sat 02:18:35 AM 51.8603 -7.9593 95° East 442 509 35,000  Level FlightAware ADS-B
Sat 02:19:15 AM 51.8538 -7.8299 95° East 444 511 35,000  Level FlightAware ADS-B
Sat 02:19:45 AM 51.8489 -7.7344 95° East 444 511 35,000  Level FlightAware ADS-B
Sat 02:20:25 AM 51.8419 -7.6015 95° East 445 512 35,000  Level FlightAware ADS-B
Sat 02:20:55 AM 51.8364 -7.4993 95° East 446 513 35,000  Level FlightAware ADS-B
Sat 02:21:34 AM 51.8294 -7.3696 95° East 448 516 35,000  Level FlightAware ADS-B
Sat 02:22:05 AM 51.8237 -7.2686 95° East 448 516 35,000  Level FlightAware ADS-B
Sat 02:22:36 AM 51.8180 -7.1664 95° East 447 514 35,000  Level FlightAware ADS-B
Sat 02:23:06 AM 51.8137 -7.0907 95° East 449 517 35,000 -88 Level FlightAware ADS-B
Sat 02:23:44 AM 51.8047 -6.9366 95° East 452 520 34,900 -329 Descending FlightAware ADS-B
Sat 02:24:19 AM 51.7986 -6.8333 95° East 454 522 34,600 -537 Descending FlightAware ADS-B (EGCW)
Sat 02:24:51 AM 51.7916 -6.7114 95° East 492 566 34,300 -474 Descending FlightAware UK
Sat 02:24:57 AM 51.7900 -6.6900 95° East 454 522 34,300 -308 Level FlightAware ADS-B
Sat 02:25:30 AM 51.7833 -6.5803 96° East 456 525 34,100 -476 Descending FlightAware ADS-B (EGCW)
Sat 02:26:00 AM 51.7795 -6.4822 94° East 456 525 33,800 -484 Descending FlightAware ADS-B (EGCW)
Sat 02:26:32 AM 51.7788 -6.4616 93° East 456 525 33,600 -435 Descending FlightAware ADS-B (EGCW)
Sat 02:27:09 AM 51.7709 -6.2446 93° East 460 529 33,300 -429 Descending FlightAware ADS-B (EGCW)
Sat 02:27:42 AM 51.7666 -6.1412 94° East 460 529 33,100 -286 Descending FlightAware ADS-B (EGCW)
Sat 02:28:12 AM 51.7616 -6.0290 94° East 458 527 33,000 -100 Descending FlightAware ADS-B (EGCW)
Sat 02:28:42 AM 51.7571 -5.9300 94° East 453 521 33,000  Level FlightAware ADS-B (EGCW)
Sat 02:29:22 AM 51.7516 -5.8052 94° East 455 524 33,000  Level FlightAware ADS-B (EGCW)
Sat 02:29:52 AM 51.7467 -5.7006 94° East 454 522 33,000  Level FlightAware ADS-B (EGCW)
Sat 02:30:22 AM 51.7416 -5.5923 94° East 454 522 33,000  Level FlightAware ADS-B (EGCW)
Sat 02:30:54 AM 51.7365 -5.4849 94° East 454 522 33,000  Level FlightAware ADS-B (EGCW)
Sat 02:31:02 AM 51.7352 -5.4583 95° East 454 522 33,000  Level FlightAware ADS-B (EGDX / DGX)
Sat 02:31:32 AM 51.7304 -5.3580 94° East 453 521 33,000  Level FlightAware ADS-B (EGCW)
Sat 02:32:02 AM 51.7253 -5.2547 95° East 453 521 33,000  Level FlightAware ADS-B (EGCW)
Sat 02:32:33 AM 51.7200 -5.1501 95° East 453 521 33,000  Level FlightAware ADS-B (EGCW)
Sat 02:32:38 AM 51.7322 -5.3964 275° West 454 522 33,000  Level FlightAware ADS-B (EGDX / DGX)
Sat 02:33:13 AM 51.7133 -5.0197 94° East 452 520 33,000  Level FlightAware ADS-B (EGCW)
Sat 02:33:43 AM 51.7080 -4.9177 95° East 453 521 33,000  Level FlightAware ADS-B (EGCW)
Sat 02:34:13 AM 51.7026 -4.8154 95° East 451 519 33,000  Level FlightAware ADS-B (EGCW)
Sat 02:34:27 AM 51.7029 -4.8218 275° West 450 518 33,000  Level FlightAware ADS-B (EGDX / DGX)
Sat 02:34:58 AM 51.6943 -4.6642 95° East 451 519 33,000  Level FlightAware ADS-B (LSPL)
Sat 02:35:10 AM 51.6922 -4.6258 95° East 451 519 33,000  Level FlightAware ADS-B (LSPL)
Sat 02:35:21 AM 51.6901 -4.5883 95° East 451 519 33,000  Level FlightAware ADS-B (EGDX / DGX)
Sat 02:35:53 AM 51.6843 -4.4852 95° East 451 519 33,000  Level FlightAware ADS-B (EGCW)
Sat 02:36:05 AM 51.6818 -4.4418 95° East 449 517 33,000  Level FlightAware ADS-B (EGDX / DGX)
Sat 02:36:51 AM 51.6731 -4.2873 95° East 492 566 33,000  Level FlightAware UK
Sat 02:36:59 AM 51.6715 -4.2630 95° East 448 516 33,000  Level FlightAware ADS-B (LSPL)
Sat 02:37:25 AM 51.6663 -4.1747 95° East 448 516 33,000  Level FlightAware ADS-B (LSPL)
Sat 02:37:29 AM 51.6657 -4.1654 95° East 449 517 33,000  Level FlightAware ADS-B (EGDX / DGX)
Sat 02:38:01 AM 51.6592 -4.0562 95° East 447 514 33,000  Level FlightAware ADS-B (LSPL)
Sat 02:38:11 AM 51.6575 -4.0301 96° East 447 514 33,000 -286 Level FlightAware ADS-B (EGCW)
Sat 02:38:22 AM 51.6535 -3.9890 99° East 448 516 32,900 -1,000 Descending FlightAware ADS-B (EGCW)
Sat 02:38:29 AM 51.6508 -3.9665 101° East 449 517 32,700 -857 Descending FlightAware ADS-B (EGDX / DGX)
Sat 02:38:43 AM 51.6445 -3.9190 102° East 447 514 32,600 -571 Descending FlightAware ADS-B (EGDM)
Sat 02:39:11 AM 51.6326 -3.8303 102° East 443 510 32,300 -600 Descending FlightAware ADS-B (EGDX / DGX)
Sat 02:39:43 AM 51.6186 -3.7276 102° East 436 502 32,000 -682 Descending FlightAware ADS-B (LSPL)
Sat 02:39:55 AM 51.6143 -3.6954 102° East 437 503 31,800 -600 Descending FlightAware ADS-B (EGDX / DGX)
Sat 02:40:03 AM 51.6101 -3.6639 102° East 431 496 31,800 -400 Level FlightAware ADS-B
Sat 02:40:10 AM 51.6083 -3.6512 102° East 431 496 31,700 -462 Descending FlightAware ADS-B (EGDX / DGX)
Sat 02:40:16 AM 51.6045 -3.6227 102° East 428 493 31,700 -429 Level FlightAware ADS-B
Sat 02:40:24 AM 51.6020 -3.6038 102° East 431 496 31,600 -545 Descending FlightAware ADS-B (EGDX / DGX)
Sat 02:40:27 AM 51.6000 -3.5893 102° East 426 490 31,600 -857 Level FlightAware ADS-B
Sat 02:40:31 AM 51.5983 -3.5769 102° East 428 493 31,500 -667 Descending FlightAware ADS-B (EGDX / DGX)
Sat 02:40:36 AM 51.5963 -3.5617 102° East 426 490 31,500 -462 Level FlightAware ADS-B
Sat 02:40:44 AM 51.5928 -3.5360 102° East 425 489 31,400 -1,125 Descending FlightAware ADS-B
Sat 02:40:52 AM 51.5966 -3.5642 282° West 427 491 31,200 -1,043 Descending FlightAware ADS-B (EGDX / DGX)
Sat 02:41:07 AM 51.5839 -3.4716 102° East 426 490 31,000 -727 Descending FlightAware ADS-B (EGDM)
Sat 02:41:25 AM 51.5757 -3.4110 102° East 424 488 30,800 -789 Descending FlightAware ADS-B (EGDX / DGX)
Sat 02:41:45 AM 51.5757 -3.4110 102° East 422 486 30,500 -889 Descending FlightAware ADS-B (EGDX / DGX)
Sat 02:41:52 AM 51.5687 -3.3592 102° East 421 484 30,400 -600 Descending FlightAware ADS-B (EGDX / DGX)
Sat 02:42:05 AM 51.5607 -3.2988 102° East 421 484 30,300 -571 Descending FlightAware ADS-B (EGDM)
Sat 02:42:13 AM 51.5559 -3.2625 102° East 419 482 30,200 -1,091 Descending FlightAware ADS-B (LSPL)
Sat 02:42:16 AM 51.5549 -3.2558 103° East 419 482 30,100 -923 Descending FlightAware ADS-B
Sat 02:42:26 AM 51.5507 -3.2247 102° East 419 482 30,000 -667 Descending FlightAware ADS-B
Sat 02:42:34 AM 51.5473 -3.1995 102° East 419 482 29,900 -667 Descending FlightAware ADS-B (LSPL)
Sat 02:42:44 AM 51.5432 -3.1688 102° East 418 481 29,800 -750 Descending FlightAware ADS-B (LSPL)
Sat 02:43:14 AM 51.5334 -3.0820 100° East 417 480 29,400 -800 Descending FlightAware ADS-B (EGCW)
Sat 02:43:29 AM 51.5305 -3.0506 98° East 415 478 29,200 -750 Descending FlightAware ADS-B (KWAL)
Sat 02:43:38 AM 51.5265 -3.0074 98° East 416 479 29,100 -600 Descending FlightAware ADS-B (KWAL)
Sat 02:44:09 AM 51.5177 -2.9148 99° East 413 475 28,800 -667 Descending FlightAware ADS-B (EGDM)
Sat 02:44:23 AM 51.5131 -2.8690 99° East 413 475 28,600 -774 Descending FlightAware ADS-B
Sat 02:44:40 AM 51.5079 -2.8178 99° East 412 474 28,400 -600 Descending FlightAware ADS-B (EGDM)
Sat 02:44:53 AM 51.5038 -2.7782 99° East 411 473 28,300 -750 Descending FlightAware ADS-B
Sat 02:45:12 AM 51.5017 -2.7571 99° East 409 471 28,000 -1,273 Descending FlightAware ADS-B
Sat 02:45:26 AM 51.4937 -2.6819 100° East 408 470 27,600 -1,941 Descending FlightAware ADS-B
Sat 02:45:46 AM 51.4877 -2.6251 100° East 401 461 26,900 -2,000 Descending FlightAware ADS-B (EGDX / DGX)
Sat 02:45:56 AM 51.4842 -2.5917 100° East 399 459 26,600 -1,941 Descending FlightAware ADS-B
Sat 02:46:20 AM 51.4771 -2.5242 100° East 396 456 25,800 -2,057 Descending FlightAware ADS-B (EGCW)
Sat 02:46:31 AM 51.4738 -2.4934 100° East 394 453 25,400 -2,000 Descending FlightAware ADS-B
Sat 02:46:56 AM 51.4675 -2.4345 100° East 392 451 24,600 -2,000 Descending FlightAware ADS-B (EGDX / DGX)
Sat 02:47:04 AM 51.4636 -2.3986 100° East 391 450 24,300 -2,129 Descending FlightAware ADS-B
Sat 02:47:27 AM 51.4565 -2.3321 100° East 388 447 23,500 -2,129 Descending FlightAware ADS-B (EGDM)
Sat 02:47:35 AM 51.4541 -2.3090 100° East 387 445 23,200 -2,000 Descending FlightAware ADS-B
Sat 02:47:57 AM 51.4476 -2.2488 100° East 383 441 22,500 -2,000 Descending FlightAware ADS-B
Sat 02:48:08 AM 51.4442 -2.2171 100° East 381 438 22,100 -2,000 Descending FlightAware ADS-B
Sat 02:48:30 AM 51.4379 -2.1589 100° East 378 435 21,400 -1,935 Descending FlightAware ADS-B (EGDM)
Sat 02:48:39 AM 51.4351 -2.1337 100° East 377 434 21,100 -1,935 Descending FlightAware ADS-B
Sat 02:49:01 AM 51.4285 -2.0734 100° East 373 429 20,400 -2,063 Descending FlightAware ADS-B (EGDM)
Sat 02:49:11 AM 51.4253 -2.0445 100° East 372 428 20,000 -2,063 Descending FlightAware ADS-B
Sat 02:49:33 AM 51.4200 -1.9962 100° East 369 425 19,300 -1,765 Descending FlightAware ADS-B
Sat 02:49:45 AM 51.4155 -1.9556 100° East 368 423 19,000 -1,941 Descending FlightAware ADS-B
Sat 02:50:07 AM 51.4089 -1.8967 100° East 365 420 18,200 -2,129 Descending FlightAware ADS-B (LSPL)
Sat 02:50:16 AM 51.4062 -1.8719 100° East 364 419 17,900 -1,742 Descending FlightAware ADS-B
Sat 02:50:38 AM 51.4072 -1.8811 280° West 361 415 17,300 -1,935 Descending FlightAware ADS-B (EGLC / LCY)
Sat 02:50:47 AM 51.3972 -1.7915 100° East 360 414 16,900 -2,200 Descending FlightAware ADS-B
Sat 02:51:08 AM 51.3915 -1.7402 100° East 355 409 16,200 -2,000 Descending FlightAware ADS-B
Sat 02:51:17 AM 51.3885 -1.7129 100° East 354 407 15,900 -1,941 Descending FlightAware ADS-B
Sat 02:51:42 AM 51.3816 -1.6519 100° East 351 404 15,100 -1,800 Descending FlightAware ADS-B (EGDM)
Sat 02:51:47 AM 51.3797 -1.6357 101° East 351 404 15,000 -1,636 Descending FlightAware ADS-B
Sat 02:51:53 AM 51.3781 -1.6217 101° East 349 402 14,800 -1,400 Descending FlightAware ADS-B (EGDM)
Sat 02:52:17 AM 51.3708 -1.5594 101° East 343 395 14,300 -1,200 Descending FlightAware ADS-B
Sat 02:52:23 AM 51.3695 -1.5477 100° East 336 387 14,200 -774 Descending FlightAware ADS-B (EGDM)
Sat 02:52:48 AM 51.3608 -1.4873 103° East 321 369 13,900 -600 Descending FlightAware ADS-B
Sat 02:52:53 AM 51.3591 -1.4769 105° East 317 365 13,900 -774 Level FlightAware ADS-B (EGDM)
Sat 02:53:19 AM 51.3501 -1.4198 104° East 299 344 13,500 -1,000 Descending FlightAware ADS-B
Sat 02:53:23 AM 51.3487 -1.4109 104° East 296 341 13,400 -1,579 Descending FlightAware ADS-B (EGDM)
Sat 02:53:38 AM 51.3446 -1.3838 104° East 287 330 13,000 -923 Descending FlightAware ADS-B
Sat 02:53:49 AM 51.3407 -1.3576 103° East 282 325 13,000 -686 Level FlightAware ADS-B
Sat 02:54:13 AM 51.3349 -1.3178 103° East 268 308 12,600 -960 Descending FlightAware ADS-B (EGDM)
Sat 02:54:14 AM 51.3334 -1.3080 103° East 267 307 12,600 -600 Level FlightAware ADS-B
Sat 02:54:43 AM 51.3255 -1.2543 103° East 252 290 12,300 -581 Descending FlightAware ADS-B (EGDM)
Sat 02:54:45 AM 51.3251 -1.2514 103° East 251 289 12,300 -600 Level FlightAware ADS-B
Sat 02:54:53 AM 51.3264 -1.2603 283° West 256 295 12,200 -667 Descending FlightAware ADS-B
Sat 02:55:03 AM 51.3203 -1.2187 103° East 240 276 12,100 -600 Descending FlightAware ADS-B (LSPL)
Sat 02:55:13 AM 51.3177 -1.2017 104° East 240 276 12,000 -545 Descending FlightAware ADS-B
Sat 02:55:25 AM 51.3149 -1.1811 102° East 237 273 11,900 -462 Descending FlightAware ADS-B
Sat 02:55:26 AM 51.3148 -1.1802 104° East 236 272 11,900 -750 Level FlightAware ADS-B (LSPL)
Sat 02:55:33 AM 51.3137 -1.1672 97° East 234 269 11,800 -750 Descending FlightAware ADS-B
Sat 02:55:34 AM 51.3136 -1.1663 100° East 235 270 11,800 -923 Level FlightAware ADS-B (LSPL)
Sat 02:55:46 AM 51.3130 -1.1447 92° East 231 266 11,600 -1,143 Descending FlightAware ADS-B (LSPL)
Sat 02:55:55 AM 51.3129 -1.1308 91° East 228 262 11,400 -923 Descending FlightAware ADS-B
Sat 02:56:12 AM 51.3126 -1.1015 91° East 227 261 11,200 -667 Descending FlightAware ADS-B
Sat 02:56:22 AM 51.3126 -1.1104 270° West 226 260 11,100 -462 Descending FlightAware ADS-B (EGLC / LCY)
Sat 02:56:38 AM 51.3123 -1.0594 91° East 227 261 11,000 -188 Descending FlightAware ADS-B
Sat 02:56:54 AM 51.3120 -1.0342 91° East 230 265 11,000  Level FlightAware ADS-B (EGDM)
Sat 02:57:08 AM 51.3117 -1.0081 91° East 228 262 11,000  Level FlightAware ADS-B
Sat 02:57:30 AM 51.3114 -0.9709 91° East 229 264 11,000  Level FlightAware ADS-B (EGDM)
Sat 02:57:38 AM 51.3112 -0.9570 91° East 229 264 11,000  Level FlightAware ADS-B
Sat 02:58:00 AM 51.3108 -0.9205 91° East 231 266 11,000  Level FlightAware ADS-B (EGDM)
Sat 02:58:09 AM 51.3106 -0.9055 91° East 230 265 11,000  Level FlightAware ADS-B
Sat 02:58:30 AM 51.3103 -0.8698 91° East 226 260 11,000  Level FlightAware ADS-B
Sat 02:58:38 AM 51.3102 -0.8633 91° East 225 259 11,000  Level FlightAware ADS-B (EGLC / LCY)
Sat 02:59:00 AM 51.3097 -0.8195 91° East 227 261 11,000  Level FlightAware ADS-B
Sat 02:59:13 AM 51.3095 -0.7986 91° East 227 261 11,000  Level FlightAware ADS-B
Sat 02:59:31 AM 51.3091 -0.7684 91° East 227 261 11,000  Level FlightAware ADS-B
Sat 02:59:44 AM 51.3089 -0.7470 91° East 227 261 11,000  Level FlightAware ADS-B
Sat 03:00:01 AM 51.3085 -0.7179 91° East 228 262 11,000  Level FlightAware ADS-B
Sat 03:00:26 AM 51.3081 -0.6754 91° East 230 265 11,000  Level FlightAware ADS-B
Sat 03:00:56 AM 51.3074 -0.6235 91° East 234 269 11,000  Level FlightAware ADS-B
Sat 03:01:27 AM 51.3067 -0.5707 91° East 234 269 11,000  Level FlightAware ADS-B
Sat 03:01:29 AM 51.3070 -0.5933 271° West 234 269 11,000 -581 Level FlightAware ADS-B
Sat 03:01:58 AM 51.3061 -0.5168 91° East 234 269 10,700 -706 Descending FlightAware ADS-B
Sat 03:02:03 AM 51.3060 -0.5135 92° East 233 268 10,600 -600 Descending FlightAware ADS-B
Sat 03:02:18 AM 51.3056 -0.4818 91° East 231 266 10,500 -667 Descending FlightAware ADS-B
Sat 03:02:21 AM 51.3057 -0.4884 271° West 231 266 10,400 -750 Descending FlightAware ADS-B (EGLC / LCY)
Sat 03:02:34 AM 51.3054 -0.4562 91° East 230 265 10,300 -774 Descending FlightAware ADS-B
Sat 03:02:52 AM 51.3071 -0.4253 85° East 227 261 10,000 -1,091 Descending FlightAware ADS-B
Sat 03:02:56 AM 51.3074 -0.4208 84° East 226 260 9,900 -1,000 Descending FlightAware ADS-B
Sat 03:02:58 AM 51.3078 -0.4159 83° East 226 260 9,900 -667 Level FlightAware ADS-B
Sat 03:03:14 AM 51.3101 -0.3898 82° East 227 261 9,700 -783 Descending FlightAware ADS-B
Sat 03:03:21 AM 51.3109 -0.3799 83° East 227 261 9,600 -750 Descending FlightAware ADS-B
Sat 03:03:30 AM 51.3122 -0.3620 83° East 225 259 9,500 -706 Descending FlightAware ADS-B
Sat 03:03:38 AM 51.3126 -0.3564 83° East 225 259 9,400 -706 Descending FlightAware ADS-B
Sat 03:03:47 AM 51.3143 -0.3352 83° East 225 259 9,300 -947 Descending FlightAware ADS-B
Sat 03:03:57 AM 51.3147 -0.3176 88° East 225 259 9,100 -1,091 Descending FlightAware ADS-B
Sat 03:03:58 AM 51.3147 -0.3168 93° East 226 260 9,100  Level FlightAware ADS-B
Sat 03:04:06 AM 51.3123 -0.3035 106° East 231 266 9,100 -500 Level FlightAware ADS-B
Sat 03:04:10 AM 51.3107 -0.2973 113° Southeast 232 267 9,000 -462 Descending FlightAware ADS-B
Sat 03:04:19 AM 51.3056 -0.2827 119° Southeast 240 276 9,000  Level FlightAware ADS-B
Sat 03:04:26 AM 51.3014 -0.2738 127° Southeast 232 267 9,000  Level FlightAware ADS-B
Sat 03:04:34 AM 51.2949 -0.2634 135° Southeast 244 281 9,000  Level FlightAware ADS-B
Sat 03:04:36 AM 51.2961 -0.2652 318° Northwest 248 285 9,000  Level FlightAware ADS-B
Sat 03:04:38 AM 51.2911 -0.2589 142° Southeast 248 285 9,000  Level FlightAware ADS-B
Sat 03:04:42 AM 51.2870 -0.2550 149° Southeast 255 293 9,000  Level FlightAware ADS-B
Sat 03:04:47 AM 51.2827 -0.2516 154° Southeast 260 299 9,000  Level FlightAware ADS-B
Sat 03:04:54 AM 51.2738 -0.2473 163° South 269 310 9,000  Level FlightAware ADS-B
Sat 03:04:57 AM 51.2691 -0.2461 171° South 272 313 9,000  Level FlightAware ADS-B
Sat 03:05:02 AM 51.2631 -0.2458 178° South 276 318 9,000  Level FlightAware ADS-B
Sat 03:05:05 AM 51.2636 -0.2457 North 284 327 9,000  Level FlightAware ADS-B
Sat 03:05:09 AM 51.2543 -0.2477 188° South 283 326 9,000  Level FlightAware ADS-B
Sat 03:05:14 AM 51.2481 -0.2506 196° South 288 331 9,000  Level FlightAware ADS-B
Sat 03:05:17 AM 51.2442 -0.2534 204° Southwest 291 335 9,000  Level FlightAware ADS-B
Sat 03:05:22 AM 51.2386 -0.2585 210° Southwest 293 337 9,000  Level FlightAware ADS-B
Sat 03:05:28 AM 51.2322 -0.2666 219° Southwest 295 339 9,000  Level FlightAware ADS-B
Sat 03:05:33 AM 51.2277 -0.2746 228° Southwest 296 341 9,000  Level FlightAware ADS-B
Sat 03:05:35 AM 51.2300 -0.2704 49° Northeast 298 343 9,000  Level FlightAware ADS-B
Sat 03:05:41 AM 51.2219 -0.2899 237° Southwest 296 341 9,000  Level FlightAware ADS-B
Sat 03:05:45 AM 51.2200 -0.2979 249° West 296 341 9,000  Level FlightAware ADS-B
Sat 03:05:47 AM 51.2204 -0.2960 73° East 296 341 9,000  Level FlightAware ADS-B
Sat 03:05:49 AM 51.2186 -0.3066 255° West 295 339 9,000  Level FlightAware ADS-B
Sat 03:05:50 AM 51.2624 -0.2459 41° Northeast 296 341 9,000  Level FlightAware ADS-B
Sat 03:05:52 AM 51.2180 -0.3133 224° Southwest 294 338 9,000  Level FlightAware ADS-B
Sat 03:05:56 AM 51.2178 -0.3221 268° West 291 335 9,000  Level FlightAware ADS-B
Sat 03:05:57 AM 51.2178 -0.3240 272° West 291 335 9,000  Level FlightAware ADS-B
Sat 03:06:02 AM 51.2186 -0.3353 276° West 289 333 9,000  Level FlightAware ADS-B
Sat 03:06:06 AM 51.2197 -0.3423 284° West 289 333 9,000  Level FlightAware ADS-B
Sat 03:06:10 AM 51.2217 -0.3510 290° West 286 329 9,000  Level FlightAware ADS-B
Sat 03:06:18 AM 51.2265 -0.3645 300° West 282 325 9,000  Level FlightAware ADS-B
Sat 03:06:21 AM 51.2296 -0.3707 309° West 278 320 9,000  Level FlightAware ADS-B
Sat 03:06:27 AM 51.2331 -0.3763 315° West 273 314 9,000  Level FlightAware ADS-B
Sat 03:06:33 AM 51.2401 -0.3847 323° Northwest 267 307 9,000  Level FlightAware ADS-B
Sat 03:06:36 AM 51.2436 -0.3879 330° Northwest 263 303 9,000  Level FlightAware ADS-B
Sat 03:06:47 AM 51.2551 -0.3981 331° Northwest 258 297 9,000  Level FlightAware ADS-B
Sat 03:06:59 AM 51.2461 -0.3900 151° Southeast 260 299 9,000  Level FlightAware ADS-B
Sat 03:07:03 AM 51.2710 -0.4151 328° Northwest 265 305 9,000  Level FlightAware ADS-B
Sat 03:07:16 AM 51.2852 -0.4296 327° Northwest 262 302 9,000  Level FlightAware ADS-B
Sat 03:07:24 AM 51.2929 -0.4370 329° Northwest 261 300 9,000  Level FlightAware ADS-B (EGHH / BOH)
Sat 03:07:32 AM 51.3014 -0.4453 329° Northwest 259 298 9,000  Level FlightAware ADS-B
Sat 03:07:39 AM 51.3089 -0.4518 331° Northwest 259 298 9,000  Level FlightAware ADS-B
Sat 03:07:46 AM 51.3162 -0.4556 342° North 254 292 9,000  Level FlightAware ADS-B
Sat 03:07:54 AM 51.3254 -0.4567 356° North 242 278 9,000  Level FlightAware ADS-B
Sat 03:07:55 AM 51.3265 -0.4566 North 242 278 9,000  Level FlightAware ADS-B
Sat 03:07:58 AM 51.3293 -0.4562 North 239 275 9,000  Level FlightAware ADS-B
Sat 03:08:02 AM 51.3334 -0.4554 North 237 273 9,000  Level FlightAware ADS-B
Sat 03:08:06 AM 51.3366 -0.4544 11° North 235 270 9,000  Level FlightAware ADS-B
Sat 03:08:08 AM 51.3398 -0.4530 15° North 234 269 9,000  Level FlightAware ADS-B
Sat 03:08:12 AM 51.3436 -0.4509 19° North 232 267 9,000  Level FlightAware ADS-B
Sat 03:08:15 AM 51.3470 -0.4485 24° Northeast 230 265 9,000  Level FlightAware ADS-B
Sat 03:08:16 AM 51.3451 -0.4499 205° Southwest 230 265 9,000  Level FlightAware ADS-B
Sat 03:08:21 AM 51.3524 -0.4434 29° Northeast 226 260 9,000  Level FlightAware ADS-B
Sat 03:08:22 AM 51.3514 -0.4444 213° Southwest 226 260 9,000  Level FlightAware ADS-B (EGLC / LCY)
Sat 03:08:25 AM 51.3558 -0.4394 36° Northeast 225 259 9,000  Level FlightAware ADS-B
Sat 03:08:30 AM 51.3592 -0.4346 42° Northeast 222 255 9,000  Level FlightAware ADS-B
Sat 03:08:31 AM 51.3595 -0.4340 52° Northeast 226 260 9,000  Level FlightAware ADS-B (EGLC / LCY)
Sat 03:08:36 AM 51.3631 -0.4273 49° Northeast 221 254 9,000  Level FlightAware ADS-B
Sat 03:08:40 AM 51.3658 -0.4211 55° Northeast 220 253 9,000  Level FlightAware ADS-B
Sat 03:08:44 AM 51.3675 -0.4163 60° Northeast 220 253 9,000  Level FlightAware ADS-B
Sat 03:08:49 AM 51.3697 -0.4084 66° East 220 253 9,000  Level FlightAware ADS-B
Sat 03:08:52 AM 51.3707 -0.4029 74° East 221 254 9,000  Level FlightAware ADS-B
Sat 03:08:56 AM 51.3716 -0.3975 75° East 222 255 9,000  Level FlightAware ADS-B
Sat 03:09:01 AM 51.3722 -0.3896 83° East 223 257 9,000  Level FlightAware ADS-B
Sat 03:09:05 AM 51.3723 -0.3824 89° East 225 259 9,000  Level FlightAware ADS-B
Sat 03:09:07 AM 51.3722 -0.3793 92° East 226 260 9,000  Level FlightAware ADS-B
Sat 03:09:11 AM 51.3717 -0.3729 97° East 228 262 9,000  Level FlightAware ADS-B
Sat 03:09:15 AM 51.3706 -0.3651 103° East 231 266 9,000  Level FlightAware ADS-B
Sat 03:09:19 AM 51.3695 -0.3594 107° East 233 268 9,000  Level FlightAware ADS-B
Sat 03:09:22 AM 51.3682 -0.3547 114° Southeast 234 269 9,000  Level FlightAware ADS-B
Sat 03:09:25 AM 51.3665 -0.3494 117° Southeast 237 273 9,000  Level FlightAware ADS-B
Sat 03:09:26 AM 51.3686 -0.3561 297° West 237 273 9,000  Level FlightAware ADS-B
Sat 03:09:29 AM 51.3645 -0.3441 119° Southeast 241 277 9,000  Level FlightAware ADS-B (EGLC / LCY)
Sat 03:09:31 AM 51.3631 -0.3410 126° Southeast 242 278 9,000  Level FlightAware ADS-B
Sat 03:09:36 AM 51.3592 -0.3340 132° Southeast 246 283 9,000  Level FlightAware ADS-B
Sat 03:09:39 AM 51.3635 -0.4265 274° West 242 278 9,000  Level FlightAware ADS-B
Sat 03:09:43 AM 51.3534 -0.3262 99° East 252 290 9,000  Level FlightAware ADS-B
Sat 03:09:46 AM 51.3514 -0.3239 145° Southeast 256 295 9,000  Level FlightAware ADS-B
Sat 03:09:48 AM 51.3479 -0.3205 149° Southeast 256 295 9,000  Level FlightAware ADS-B
Sat 03:09:57 AM 51.3388 -0.3116 149° Southeast 252 290 9,000  Level FlightAware ADS-B
Sat 03:10:04 AM 51.3322 -0.3040 144° Southeast 250 288 9,000  Level FlightAware ADS-B
Sat 03:10:06 AM 51.3309 -0.3024 142° Southeast 252 290 9,000  Level FlightAware ADS-B (EGLC / LCY)
Sat 03:10:16 AM 51.3209 -0.2911 145° Southeast 253 291 9,000  Level FlightAware ADS-B
Sat 03:10:39 AM 51.2983 -0.2683 148° Southeast 256 295 9,000  Level FlightAware ADS-B
Sat 03:10:47 AM 51.2902 -0.2608 150° Southeast 258 297 9,000  Level FlightAware ADS-B
Sat 03:10:54 AM 51.2825 -0.2552 156° South 266 306 9,000  Level FlightAware ADS-B
Sat 03:10:59 AM 51.2777 -0.2534 167° South 274 315 9,000  Level FlightAware ADS-B
Sat 03:11:04 AM 51.2699 -0.2522 175° South 274 315 9,000  Level FlightAware ADS-B
Sat 03:11:09 AM 51.2636 -0.2527 183° South 284 327 9,000  Level FlightAware ADS-B
Sat 03:11:15 AM 51.2555 -0.2549 190° South 287 330 9,000  Level FlightAware ADS-B
Sat 03:11:22 AM 51.2470 -0.2597 199° South 291 335 9,000  Level FlightAware ADS-B
Sat 03:11:28 AM 51.2400 -0.2660 210° Southwest 294 338 9,000 -857 Level FlightAware ADS-B
Sat 03:11:29 AM 51.2389 -0.2672 214° Southwest 295 339 8,900 -1,000 Descending FlightAware ADS-B
Sat 03:11:34 AM 51.2339 -0.2737 219° Southwest 296 341 8,900  Level FlightAware ADS-B
Sat 03:11:37 AM 51.2310 -0.2788 228° Southwest 296 341 8,900 -1,500 Level FlightAware ADS-B
Sat 03:11:38 AM 51.2324 -0.2763 48° Northeast 296 341 8,800 -1,200 Descending FlightAware ADS-B
Sat 03:11:42 AM 51.2962 -0.2663 North 296 341 8,800  Level FlightAware ADS-B
Sat 03:11:44 AM 51.2255 -0.2918 193° South 296 341 8,800 -1,000 Level FlightAware ADS-B
Sat 03:11:48 AM 51.2234 -0.2994 246° West 294 338 8,700 -1,000 Descending FlightAware ADS-B
Sat 03:11:50 AM 51.2705 -0.2521 32° Northeast 266 306 8,700 -1,000 Level FlightAware ADS-B
Sat 03:11:54 AM 51.2211 -0.3117 217° Southwest 293 337 8,600 -750 Descending FlightAware ADS-B
Sat 03:11:58 AM 51.2204 -0.3211 263° West 291 335 8,600  Level FlightAware ADS-B
Sat 03:11:59 AM 51.2204 -0.3221 266° West 291 335 8,600 -1,000 Level FlightAware ADS-B
Sat 03:12:04 AM 51.2206 -0.3328 272° West 289 333 8,500 -1,091 Descending FlightAware ADS-B
Sat 03:12:10 AM 51.2222 -0.3456 281° West 285 328 8,400 -545 Descending FlightAware ADS-B
Sat 03:12:15 AM 51.2243 -0.3547 290° West 282 325 8,400 -667 Level FlightAware ADS-B
Sat 03:12:19 AM 51.2233 -0.3508 113° Southeast 278 320 8,300 -1,200 Descending FlightAware ADS-B
Sat 03:12:20 AM 51.2280 -0.3649 298° West 278 320 8,300  Level FlightAware ADS-B
Sat 03:12:24 AM 51.2304 -0.3703 306° West 276 318 8,300 -857 Level FlightAware ADS-B
Sat 03:12:27 AM 51.2328 -0.3746 312° West 273 314 8,200 -1,200 Descending FlightAware ADS-B
Sat 03:12:29 AM 51.2346 -0.3773 316° Northwest 271 312 8,200 -1,200 Level FlightAware ADS-B
Sat 03:12:32 AM 51.2376 -0.3814 320° Northwest 270 311 8,100 -1,000 Descending FlightAware ADS-B
Sat 03:12:35 AM 51.2412 -0.3855 325° Northwest 268 308 8,100 -750 Level FlightAware ADS-B
Sat 03:12:40 AM 51.2457 -0.3896 330° Northwest 262 302 8,000 -545 Descending FlightAware ADS-B
Sat 03:12:46 AM 51.2523 -0.3953 332° Northwest 256 295 8,000 -667 Level FlightAware ADS-B
Sat 03:12:49 AM 51.2548 -0.3976 330° Northwest 256 295 7,900 -1,000 Descending FlightAware ADS-B
Sat 03:12:52 AM 51.2583 -0.4011 328° Northwest 257 296 7,900 -600 Level FlightAware ADS-B
Sat 03:12:59 AM 51.2654 -0.4085 327° Northwest 259 298 7,800 -800 Descending FlightAware ADS-B
Sat 03:13:07 AM 51.2734 -0.4167 327° Northwest 257 296 7,700 -600 Descending FlightAware ADS-B
Sat 03:13:19 AM 51.2854 -0.4287 328° Northwest 255 293 7,600 -750 Descending FlightAware ADS-B
Sat 03:13:23 AM 51.2890 -0.4322 329° Northwest 255 293 7,500 -1,000 Descending FlightAware ADS-B
Sat 03:13:31 AM 51.2978 -0.4408 329° Northwest 253 291 7,400 -857 Descending FlightAware ADS-B
Sat 03:13:37 AM 51.3034 -0.4466 327° Northwest 254 292 7,300 -857 Descending FlightAware ADS-B
Sat 03:13:38 AM 51.3044 -0.4477 325° Northwest 254 292 7,300  Level FlightAware ADS-B
Sat 03:13:40 AM 51.3062 -0.4501 321° Northwest 254 292 7,300  Level FlightAware ADS-B
Sat 03:13:43 AM 51.3090 -0.4540 319° Northwest 257 296 7,300 -857 Level FlightAware ADS-B
Sat 03:13:47 AM 51.3123 -0.4597 313° West 261 300 7,200 -1,000 Descending FlightAware ADS-B
Sat 03:13:49 AM 51.3137 -0.4627 306° West 263 303 7,200  Level FlightAware ADS-B
Sat 03:13:51 AM 51.3150 -0.4659 304° West 266 306 7,200 -857 Level FlightAware ADS-B
Sat 03:13:56 AM 51.3179 -0.4750 297° West 271 312 7,100 -750 Descending FlightAware ADS-B
Sat 03:13:59 AM 51.3193 -0.4807 291° West 276 318 7,100 -667 Level FlightAware ADS-B
Sat 03:14:05 AM 51.3214 -0.4919 287° West 278 320 7,000 -857 Descending FlightAware ADS-B
Sat 03:14:06 AM 51.3218 -0.4950 283° West 278 320 7,000  Level FlightAware ADS-B
Sat 03:14:22 AM 51.3261 -0.5266 282° West 282 325 7,000  Level FlightAware ADS-B
Sat 03:14:37 AM 51.3301 -0.5570 282° West 278 320 7,000  Level FlightAware ADS-B
Sat 03:14:45 AM 51.3315 -0.5671 282° West 278 320 7,000  Level FlightAware ADS-B
Sat 03:14:52 AM 51.3342 -0.5873 282° West 278 320 7,000  Level FlightAware ADS-B
Sat 03:15:07 AM 51.3382 -0.6180 282° West 278 320 7,000  Level FlightAware ADS-B
Sat 03:15:10 AM 51.3390 -0.6241 282° West 279 321 7,000 -800 Level FlightAware ADS-B
Sat 03:15:22 AM 51.3422 -0.6482 282° West 279 321 6,800 -947 Descending FlightAware ADS-B
Sat 03:15:29 AM 51.3438 -0.6604 282° West 274 315 6,700 -750 Descending FlightAware ADS-B
Sat 03:15:38 AM 51.3461 -0.6789 281° West 274 315 6,600 -571 Descending FlightAware ADS-B
Sat 03:15:50 AM 51.3492 -0.7036 281° West 271 312 6,500 -643 Descending FlightAware ADS-B
Sat 03:16:06 AM 51.3529 -0.7346 281° West 270 311 6,300 -667 Descending FlightAware ADS-B
Sat 03:16:17 AM 51.3552 -0.7536 281° West 270 311 6,200 -400 Descending FlightAware ADS-B (EGLC / LCY)
Sat 03:16:21 AM 51.3564 -0.7643 280° West 270 311 6,200 -600 Level FlightAware ADS-B
Sat 03:16:37 AM 51.3601 -0.7949 281° West 270 311 6,000 -643 Descending FlightAware ADS-B
Sat 03:16:49 AM 51.3629 -0.8182 281° West 268 308 5,900 -300 Descending FlightAware ADS-B
Sat 03:16:57 AM 51.3648 -0.8332 281° West 265 305 5,900 -462 Level FlightAware ADS-B
Sat 03:17:02 AM 51.3662 -0.8427 283° West 259 298 5,800 -600 Descending FlightAware ADS-B
Sat 03:17:17 AM 51.3714 -0.8698 287° West 243 280 5,700 -387 Descending FlightAware ADS-B
Sat 03:17:33 AM 51.3768 -0.8961 288° West 234 269 5,600 -300 Descending FlightAware ADS-B
Sat 03:17:37 AM 51.3783 -0.9024 291° West 231 266 5,600  Level FlightAware ADS-B
Sat 03:17:40 AM 51.3797 -0.9071 295° West 229 264 5,600 -857 Level FlightAware ADS-B
Sat 03:17:44 AM 51.3816 -0.9122 301° West 225 259 5,500 -750 Descending FlightAware ADS-B
Sat 03:17:48 AM 51.3842 -0.9171 310° West 221 254 5,500  Level FlightAware ADS-B
Sat 03:17:51 AM 51.3867 -0.9208 317° Northwest 216 249 5,500 -857 Level FlightAware ADS-B
Sat 03:17:55 AM 51.3892 -0.9237 325° Northwest 212 244 5,400 -750 Descending FlightAware ADS-B
Sat 03:17:59 AM 51.3926 -0.9264 333° Northwest 206 237 5,400  Level FlightAware ADS-B
Sat 03:18:02 AM 51.3955 -0.9279 343° North 199 229 5,400 -857 Level FlightAware ADS-B
Sat 03:18:06 AM 51.3985 -0.9292 345° North 195 224 5,300 -750 Descending FlightAware ADS-B
Sat 03:18:10 AM 51.4022 -0.9302 350° North 191 220 5,300  Level FlightAware ADS-B
Sat 03:18:16 AM 51.4074 -0.9314 352° North 189 217 5,300 -375 Level FlightAware ADS-B
Sat 03:18:26 AM 51.4163 -0.9331 353° North 190 219 5,200 -429 Descending FlightAware ADS-B
Sat 03:18:30 AM 51.4194 -0.9332 358° North 189 217 5,200 -750 Level FlightAware ADS-B
Sat 03:18:34 AM 51.4232 -0.9326 North 187 215 5,100 -857 Descending FlightAware ADS-B
Sat 03:18:37 AM 51.4257 -0.9315 16° North 182 209 5,100 -750 Level FlightAware ADS-B
Sat 03:18:42 AM 51.4293 -0.9286 27° Northeast 175 201 5,000 -400 Descending FlightAware ADS-B
Sat 03:18:52 AM 51.4345 -0.9205 44° Northeast 169 194 5,000 -375 Level FlightAware ADS-B
Sat 03:18:58 AM 51.4216 -0.9330 211° Southwest 179 206 4,900 -750 Descending FlightAware ADS-B
Sat 03:19:00 AM 51.4382 -0.9125 38° Northeast 167 192 4,900  Level FlightAware ADS-B
Sat 03:19:06 AM 51.4411 -0.9058 56° Northeast 167 192 4,900 -400 Level FlightAware ADS-B
Sat 03:19:15 AM 51.4448 -0.8968 56° Northeast 167 192 4,800 -632 Descending FlightAware ADS-B
Sat 03:19:25 AM 51.4180 -0.9332 220° Southwest 168 193 4,700 -375 Descending FlightAware ADS-B (EGLC / LCY)
Sat 03:19:31 AM 51.4516 -0.8808 44° Northeast 168 193 4,700 -545 Level FlightAware ADS-B
Sat 03:19:36 AM 51.4539 -0.8755 56° Northeast 168 193 4,600 -800 Descending FlightAware ADS-B (EGLC / LCY)
Sat 03:19:46 AM 51.4582 -0.8655 55° Northeast 168 193 4,500 -667 Descending FlightAware ADS-B
Sat 03:19:54 AM 51.4612 -0.8587 54° Northeast 169 194 4,400 -400 Descending FlightAware ADS-B
Sat 03:20:01 AM 51.4652 -0.8497 55° Northeast 170 196 4,400 -300 Level FlightAware ADS-B
Sat 03:20:14 AM 51.4709 -0.8366 55° Northeast 171 197 4,300 -857 Descending FlightAware ADS-B
Sat 03:20:15 AM 51.4709 -0.8366 176° South 170 196 4,200 -1,200 Descending FlightAware ADS-B
Sat 03:20:19 AM 51.4726 -0.8312 63° Northeast 169 194 4,200  Level FlightAware ADS-B
Sat 03:20:22 AM 51.4737 -0.8269 68° East 168 193 4,200 -750 Level FlightAware ADS-B
Sat 03:20:27 AM 51.4746 -0.8218 74° East 167 192 4,100 -667 Descending FlightAware ADS-B
Sat 03:20:31 AM 51.4752 -0.8166 80° East 166 191 4,100 -545 Level FlightAware ADS-B
Sat 03:20:38 AM 51.4758 -0.8080 84° East 163 188 4,000 -750 Descending FlightAware ADS-B
Sat 03:20:39 AM 51.4758 -0.8067 88° East 164 189 4,000  Level FlightAware ADS-B
Sat 03:20:42 AM 51.4759 -0.8032 88° East 163 188 4,000 -1,091 Level FlightAware ADS-B
Sat 03:20:50 AM 51.4759 -0.7938 90° East 162 186 3,800 -1,200 Descending FlightAware ADS-B
Sat 03:20:57 AM 51.4759 -0.7857 90° East 157 181 3,700 -800 Descending FlightAware ADS-B
Sat 03:21:05 AM 51.4759 -0.7761 90° East 152 175 3,600 -706 Descending FlightAware ADS-B
Sat 03:21:14 AM 51.4760 -0.7664 89° East 148 170 3,500 -571 Descending FlightAware ADS-B
Sat 03:21:26 AM 51.4761 -0.7536 89° East 142 163 3,400 -720 Descending FlightAware ADS-B
Sat 03:21:39 AM 51.4762 -0.7403 89° East 139 160 3,200 -857 Descending FlightAware ADS-B
Sat 03:21:47 AM 51.4763 -0.7316 89° East 140 161 3,100 -900 Descending FlightAware ADS-B
Sat 03:21:59 AM 51.4763 -0.7197 90° East 141 162 2,900 -857 Descending FlightAware ADS-B
Sat 03:22:01 AM 51.4764 -0.7171 88° East 141 162 2,900 -500 Level FlightAware ADS-B
Sat 03:22:11 AM 51.4764 -0.7063 90° East 143 165 2,800 -692 Descending FlightAware ADS-B
Sat 03:22:27 AM 51.4765 -0.6898 89° East 144 166 2,600 -1,043 Descending FlightAware ADS-B
Sat 03:22:34 AM 51.4766 -0.6820 89° East 143 165 2,400 -1,200 Descending FlightAware ADS-B
Sat 03:22:42 AM 51.4766 -0.6737 90° East 143 165 2,300 -571 Descending FlightAware ADS-B
Sat 03:22:55 AM 51.4767 -0.6598 89° East 142 163 2,200 -720 Descending FlightAware ADS-B
Sat 03:23:07 AM 51.4767 -0.6561 90° East 142 163 2,000 -750 Descending FlightAware ADS-B
Sat 03:23:11 AM 51.4768 -0.6435 89° East 142 163 2,000 -600 Level FlightAware ADS-B
Sat 03:23:27 AM 51.4769 -0.6268 89° East 142 163 1,800 -909 Descending FlightAware ADS-B
Sat 03:23:44 AM 51.4770 -0.6085 89° East 142 163 1,500 -1,000 Descending FlightAware ADS-B
Sat 03:23:51 AM 51.4770 -0.6014 90° East 140 161 1,400 -600 Descending FlightAware ADS-B
Sat 03:24:04 AM 51.4771 -0.5885 89° East 136 157 1,300 -774 Descending FlightAware ADS-B
Sat 03:24:22 AM 51.4771 -0.5703 90° East 136 157 1,000 -909 Descending FlightAware ADS-B
Sat 03:24:37 AM 51.4773 -0.5545 89° East 139 160 800 -712 Descending FlightAware ADS-B
Sat 03:25:21 AM 51.4770 -0.5090 91° East 143 165 300 -682 Descending FlightAware ADS-B (CYTZ)
Sat 03:25:41 AM 51.4770 -0.4890 90° East 144 166 -900 Descending FlightAware ADS-B (CYTZ)
Sat 03:25:59 AM 51.4780 -0.4700 85° East 125 144  Level FlightAware ADS-B

Login

Don't have an account? Register now (free) for customized features, flight alerts, and more!